<?xml version="1.0" encoding="UTF-8" standalone="no" ?>
<gpx xmlns="http://www.topografix.com/GPX/1/1" xmlns:xsi="http://www.w3.org/2001/XMLSchema-instance" xsi:schemaLocation="http://www.topografix.com/GPX/1/1 http://www.topografix.com/GPX/1/1/gpx.xsd" version="1.1" creator="VisuGPX - https://www.visugpx.com">
  <metadata>
    <name>64 - VTT - Abos sur les hauteurs</name>
    <desc><![CDATA[soleil chaleur sortie faite avec l\'ancien vice-champion d\'Ile-de-France]]></desc>
  </metadata>
  <trk>
    <name><![CDATA[ACTIVE LOG 007]]></name>
    <trkseg>
      <trkpt lat="43.35817" lon="-0.56438">
        <ele>116.9375</ele>
        <time>2012-03-15T12:30:30Z</time>
      </trkpt>
      <trkpt lat="43.35817" lon="-0.56438">
        <ele>117.898804</ele>
        <time>2012-03-15T12:30:31Z</time>
      </trkpt>
      <trkpt lat="43.35818" lon="-0.56438">
        <ele>117.418213</ele>
        <time>2012-03-15T12:30:32Z</time>
      </trkpt>
      <trkpt lat="43.35819" lon="-0.56441">
        <ele>117.418213</ele>
        <time>2012-03-15T12:30:40Z</time>
      </trkpt>
      <trkpt lat="43.35819" lon="-0.56437">
        <ele>117.418213</ele>
        <time>2012-03-15T12:31:00Z</time>
      </trkpt>
      <trkpt lat="43.3582" lon="-0.56436">
        <ele>115.976196</ele>
        <time>2012-03-15T12:31:13Z</time>
      </trkpt>
      <trkpt lat="43.3582" lon="-0.56437">
        <ele>120.302124</ele>
        <time>2012-03-15T12:31:14Z</time>
      </trkpt>
      <trkpt lat="43.3582" lon="-0.56436">
        <ele>117.898804</ele>
        <time>2012-03-15T12:31:15Z</time>
      </trkpt>
      <trkpt lat="43.35821" lon="-0.56435">
        <ele>114.53418</ele>
        <time>2012-03-15T12:31:17Z</time>
      </trkpt>
      <trkpt lat="43.35825" lon="-0.5642">
        <ele>117.898804</ele>
        <time>2012-03-15T12:31:23Z</time>
      </trkpt>
      <trkpt lat="43.35826" lon="-0.56368">
        <ele>119.34082</ele>
        <time>2012-03-15T12:31:36Z</time>
      </trkpt>
      <trkpt lat="43.35827" lon="-0.56358">
        <ele>118.379395</ele>
        <time>2012-03-15T12:31:38Z</time>
      </trkpt>
      <trkpt lat="43.35827" lon="-0.56339">
        <ele>119.821411</ele>
        <time>2012-03-15T12:31:41Z</time>
      </trkpt>
      <trkpt lat="43.35828" lon="-0.56311">
        <ele>120.782837</ele>
        <time>2012-03-15T12:31:45Z</time>
      </trkpt>
      <trkpt lat="43.35847" lon="-0.56242">
        <ele>119.821411</ele>
        <time>2012-03-15T12:31:55Z</time>
      </trkpt>
      <trkpt lat="43.35846" lon="-0.562">
        <ele>119.821411</ele>
        <time>2012-03-15T12:32:01Z</time>
      </trkpt>
      <trkpt lat="43.35829" lon="-0.56118">
        <ele>120.782837</ele>
        <time>2012-03-15T12:32:11Z</time>
      </trkpt>
      <trkpt lat="43.35808" lon="-0.56076">
        <ele>120.302124</ele>
        <time>2012-03-15T12:32:18Z</time>
      </trkpt>
      <trkpt lat="43.35798" lon="-0.56066">
        <ele>119.821411</ele>
        <time>2012-03-15T12:32:20Z</time>
      </trkpt>
      <trkpt lat="43.35771" lon="-0.56056">
        <ele>121.26355</ele>
        <time>2012-03-15T12:32:25Z</time>
      </trkpt>
      <trkpt lat="43.3574" lon="-0.56065">
        <ele>121.26355</ele>
        <time>2012-03-15T12:32:31Z</time>
      </trkpt>
      <trkpt lat="43.3571" lon="-0.56054">
        <ele>120.782837</ele>
        <time>2012-03-15T12:32:37Z</time>
      </trkpt>
      <trkpt lat="43.35688" lon="-0.56036">
        <ele>121.26355</ele>
        <time>2012-03-15T12:32:42Z</time>
      </trkpt>
      <trkpt lat="43.35675" lon="-0.5603">
        <ele>121.744141</ele>
        <time>2012-03-15T12:32:45Z</time>
      </trkpt>
      <trkpt lat="43.3565" lon="-0.56024">
        <ele>121.744141</ele>
        <time>2012-03-15T12:32:50Z</time>
      </trkpt>
      <trkpt lat="43.35613" lon="-0.55969">
        <ele>121.26355</ele>
        <time>2012-03-15T12:33:01Z</time>
      </trkpt>
      <trkpt lat="43.35612" lon="-0.55952">
        <ele>125.589355</ele>
        <time>2012-03-15T12:33:06Z</time>
      </trkpt>
      <trkpt lat="43.35612" lon="-0.5595">
        <ele>121.26355</ele>
        <time>2012-03-15T12:33:07Z</time>
      </trkpt>
      <trkpt lat="43.35602" lon="-0.55908">
        <ele>124.147339</ele>
        <time>2012-03-15T12:33:20Z</time>
      </trkpt>
      <trkpt lat="43.35601" lon="-0.55904">
        <ele>123.186157</ele>
        <time>2012-03-15T12:33:29Z</time>
      </trkpt>
      <trkpt lat="43.35603" lon="-0.55907">
        <ele>124.147339</ele>
        <time>2012-03-15T12:35:35Z</time>
      </trkpt>
      <trkpt lat="43.35613" lon="-0.55952">
        <ele>122.705444</ele>
        <time>2012-03-15T12:35:50Z</time>
      </trkpt>
      <trkpt lat="43.35614" lon="-0.55973">
        <ele>120.782837</ele>
        <time>2012-03-15T12:35:55Z</time>
      </trkpt>
      <trkpt lat="43.35604" lon="-0.55966">
        <ele>119.821411</ele>
        <time>2012-03-15T12:36:01Z</time>
      </trkpt>
      <trkpt lat="43.35589" lon="-0.55918">
        <ele>120.302124</ele>
        <time>2012-03-15T12:36:10Z</time>
      </trkpt>
      <trkpt lat="43.35578" lon="-0.55867">
        <ele>120.782837</ele>
        <time>2012-03-15T12:36:19Z</time>
      </trkpt>
      <trkpt lat="43.35526" lon="-0.55772">
        <ele>120.782837</ele>
        <time>2012-03-15T12:36:38Z</time>
      </trkpt>
      <trkpt lat="43.35471" lon="-0.55683">
        <ele>123.666748</ele>
        <time>2012-03-15T12:36:57Z</time>
      </trkpt>
      <trkpt lat="43.3546" lon="-0.55667">
        <ele>123.666748</ele>
        <time>2012-03-15T12:37:01Z</time>
      </trkpt>
      <trkpt lat="43.35424" lon="-0.55584">
        <ele>123.186157</ele>
        <time>2012-03-15T12:37:16Z</time>
      </trkpt>
      <trkpt lat="43.35416" lon="-0.55562">
        <ele>122.705444</ele>
        <time>2012-03-15T12:37:20Z</time>
      </trkpt>
      <trkpt lat="43.35388" lon="-0.55529">
        <ele>122.705444</ele>
        <time>2012-03-15T12:37:28Z</time>
      </trkpt>
      <trkpt lat="43.35337" lon="-0.55511">
        <ele>121.26355</ele>
        <time>2012-03-15T12:37:37Z</time>
      </trkpt>
      <trkpt lat="43.35315" lon="-0.55493">
        <ele>120.782837</ele>
        <time>2012-03-15T12:37:41Z</time>
      </trkpt>
      <trkpt lat="43.35262" lon="-0.55406">
        <ele>120.782837</ele>
        <time>2012-03-15T12:37:57Z</time>
      </trkpt>
      <trkpt lat="43.35233" lon="-0.55358">
        <ele>120.782837</ele>
        <time>2012-03-15T12:38:06Z</time>
      </trkpt>
      <trkpt lat="43.35226" lon="-0.55332">
        <ele>120.782837</ele>
        <time>2012-03-15T12:38:10Z</time>
      </trkpt>
      <trkpt lat="43.35223" lon="-0.55269">
        <ele>122.705444</ele>
        <time>2012-03-15T12:38:20Z</time>
      </trkpt>
      <trkpt lat="43.35208" lon="-0.55211">
        <ele>122.224731</ele>
        <time>2012-03-15T12:38:30Z</time>
      </trkpt>
      <trkpt lat="43.35167" lon="-0.55147">
        <ele>126.069946</ele>
        <time>2012-03-15T12:38:45Z</time>
      </trkpt>
      <trkpt lat="43.35164" lon="-0.55143">
        <ele>125.108765</ele>
        <time>2012-03-15T12:38:46Z</time>
      </trkpt>
      <trkpt lat="43.35154" lon="-0.55133">
        <ele>126.069946</ele>
        <time>2012-03-15T12:38:49Z</time>
      </trkpt>
      <trkpt lat="43.35129" lon="-0.55119">
        <ele>127.031372</ele>
        <time>2012-03-15T12:38:55Z</time>
      </trkpt>
      <trkpt lat="43.35117" lon="-0.55116">
        <ele>126.069946</ele>
        <time>2012-03-15T12:38:58Z</time>
      </trkpt>
      <trkpt lat="43.3509" lon="-0.55104">
        <ele>126.069946</ele>
        <time>2012-03-15T12:39:04Z</time>
      </trkpt>
      <trkpt lat="43.35052" lon="-0.55085">
        <ele>124.628052</ele>
        <time>2012-03-15T12:39:12Z</time>
      </trkpt>
      <trkpt lat="43.35038" lon="-0.55076">
        <ele>125.108765</ele>
        <time>2012-03-15T12:39:15Z</time>
      </trkpt>
      <trkpt lat="43.34982" lon="-0.55002">
        <ele>124.147339</ele>
        <time>2012-03-15T12:39:30Z</time>
      </trkpt>
      <trkpt lat="43.34966" lon="-0.54976">
        <ele>125.108765</ele>
        <time>2012-03-15T12:39:35Z</time>
      </trkpt>
      <trkpt lat="43.34956" lon="-0.54953">
        <ele>126.550659</ele>
        <time>2012-03-15T12:39:39Z</time>
      </trkpt>
      <trkpt lat="43.34928" lon="-0.54921">
        <ele>127.992554</ele>
        <time>2012-03-15T12:39:50Z</time>
      </trkpt>
      <trkpt lat="43.34872" lon="-0.54897">
        <ele>127.511963</ele>
        <time>2012-03-15T12:40:04Z</time>
      </trkpt>
      <trkpt lat="43.34863" lon="-0.54896">
        <ele>127.511963</ele>
        <time>2012-03-15T12:40:06Z</time>
      </trkpt>
      <trkpt lat="43.34834" lon="-0.54873">
        <ele>127.031372</ele>
        <time>2012-03-15T12:40:15Z</time>
      </trkpt>
      <trkpt lat="43.3483" lon="-0.54863">
        <ele>127.031372</ele>
        <time>2012-03-15T12:40:17Z</time>
      </trkpt>
      <trkpt lat="43.34827" lon="-0.54853">
        <ele>127.031372</ele>
        <time>2012-03-15T12:40:19Z</time>
      </trkpt>
      <trkpt lat="43.348" lon="-0.54819">
        <ele>126.550659</ele>
        <time>2012-03-15T12:40:29Z</time>
      </trkpt>
      <trkpt lat="43.34778" lon="-0.54799">
        <ele>127.511963</ele>
        <time>2012-03-15T12:40:39Z</time>
      </trkpt>
      <trkpt lat="43.34806" lon="-0.54825">
        <ele>127.031372</ele>
        <time>2012-03-15T12:40:51Z</time>
      </trkpt>
      <trkpt lat="43.34815" lon="-0.54834">
        <ele>126.550659</ele>
        <time>2012-03-15T12:40:55Z</time>
      </trkpt>
      <trkpt lat="43.3482" lon="-0.5483">
        <ele>127.031372</ele>
        <time>2012-03-15T12:41:01Z</time>
      </trkpt>
      <trkpt lat="43.34818" lon="-0.54831">
        <ele>123.666748</ele>
        <time>2012-03-15T12:41:06Z</time>
      </trkpt>
      <trkpt lat="43.34818" lon="-0.54831">
        <ele>127.511963</ele>
        <time>2012-03-15T12:41:08Z</time>
      </trkpt>
      <trkpt lat="43.34818" lon="-0.54831">
        <ele>126.550659</ele>
        <time>2012-03-15T12:41:09Z</time>
      </trkpt>
      <trkpt lat="43.34815" lon="-0.54826">
        <ele>126.069946</ele>
        <time>2012-03-15T12:42:43Z</time>
      </trkpt>
      <trkpt lat="43.34818" lon="-0.54827">
        <ele>127.031372</ele>
        <time>2012-03-15T12:43:28Z</time>
      </trkpt>
      <trkpt lat="43.34821" lon="-0.54827">
        <ele>127.992554</ele>
        <time>2012-03-15T12:43:30Z</time>
      </trkpt>
      <trkpt lat="43.34827" lon="-0.54824">
        <ele>127.992554</ele>
        <time>2012-03-15T12:43:34Z</time>
      </trkpt>
      <trkpt lat="43.34851" lon="-0.54786">
        <ele>129.915283</ele>
        <time>2012-03-15T12:43:48Z</time>
      </trkpt>
      <trkpt lat="43.34874" lon="-0.54766">
        <ele>133.760498</ele>
        <time>2012-03-15T12:43:57Z</time>
      </trkpt>
      <trkpt lat="43.34883" lon="-0.54756">
        <ele>135.202515</ele>
        <time>2012-03-15T12:44:01Z</time>
      </trkpt>
      <trkpt lat="43.34911" lon="-0.54704">
        <ele>138.567261</ele>
        <time>2012-03-15T12:44:16Z</time>
      </trkpt>
      <trkpt lat="43.34937" lon="-0.54641">
        <ele>142.412476</ele>
        <time>2012-03-15T12:44:33Z</time>
      </trkpt>
      <trkpt lat="43.34963" lon="-0.54632">
        <ele>145.296387</ele>
        <time>2012-03-15T12:44:44Z</time>
      </trkpt>
      <trkpt lat="43.34973" lon="-0.54633">
        <ele>147.218994</ele>
        <time>2012-03-15T12:44:49Z</time>
      </trkpt>
      <trkpt lat="43.35002" lon="-0.5464">
        <ele>150.103027</ele>
        <time>2012-03-15T12:45:03Z</time>
      </trkpt>
      <trkpt lat="43.35015" lon="-0.54643">
        <ele>152.986938</ele>
        <time>2012-03-15T12:45:10Z</time>
      </trkpt>
      <trkpt lat="43.35023" lon="-0.54645">
        <ele>153.948364</ele>
        <time>2012-03-15T12:45:15Z</time>
      </trkpt>
      <trkpt lat="43.35027" lon="-0.54645">
        <ele>153.467651</ele>
        <time>2012-03-15T12:45:17Z</time>
      </trkpt>
      <trkpt lat="43.35055" lon="-0.54649">
        <ele>155.870972</ele>
        <time>2012-03-15T12:45:31Z</time>
      </trkpt>
      <trkpt lat="43.35072" lon="-0.54651">
        <ele>159.235474</ele>
        <time>2012-03-15T12:45:40Z</time>
      </trkpt>
      <trkpt lat="43.35073" lon="-0.54652">
        <ele>159.716187</ele>
        <time>2012-03-15T12:45:41Z</time>
      </trkpt>
      <trkpt lat="43.35078" lon="-0.54657">
        <ele>159.235474</ele>
        <time>2012-03-15T12:45:44Z</time>
      </trkpt>
      <trkpt lat="43.35091" lon="-0.54657">
        <ele>162.119507</ele>
        <time>2012-03-15T12:45:52Z</time>
      </trkpt>
      <trkpt lat="43.35099" lon="-0.54653">
        <ele>162.119507</ele>
        <time>2012-03-15T12:45:56Z</time>
      </trkpt>
      <trkpt lat="43.3512" lon="-0.54628">
        <ele>162.600098</ele>
        <time>2012-03-15T12:46:07Z</time>
      </trkpt>
      <trkpt lat="43.3513" lon="-0.54621">
        <ele>163.561523</ele>
        <time>2012-03-15T12:46:12Z</time>
      </trkpt>
      <trkpt lat="43.35147" lon="-0.5461">
        <ele>164.522705</ele>
        <time>2012-03-15T12:46:21Z</time>
      </trkpt>
      <trkpt lat="43.35162" lon="-0.54588">
        <ele>166.445312</ele>
        <time>2012-03-15T12:46:30Z</time>
      </trkpt>
      <trkpt lat="43.35165" lon="-0.54575">
        <ele>167.406738</ele>
        <time>2012-03-15T12:46:37Z</time>
      </trkpt>
      <trkpt lat="43.35164" lon="-0.54551">
        <ele>170.290649</ele>
        <time>2012-03-15T12:46:48Z</time>
      </trkpt>
      <trkpt lat="43.35165" lon="-0.54545">
        <ele>170.771362</ele>
        <time>2012-03-15T12:46:50Z</time>
      </trkpt>
      <trkpt lat="43.35166" lon="-0.5452">
        <ele>172.213257</ele>
        <time>2012-03-15T12:47:00Z</time>
      </trkpt>
      <trkpt lat="43.35167" lon="-0.54485">
        <ele>176.539307</ele>
        <time>2012-03-15T12:47:15Z</time>
      </trkpt>
      <trkpt lat="43.35175" lon="-0.54446">
        <ele>178.942627</ele>
        <time>2012-03-15T12:47:32Z</time>
      </trkpt>
      <trkpt lat="43.35189" lon="-0.54387">
        <ele>178.942627</ele>
        <time>2012-03-15T12:47:49Z</time>
      </trkpt>
      <trkpt lat="43.35205" lon="-0.54355">
        <ele>180.384521</ele>
        <time>2012-03-15T12:48:04Z</time>
      </trkpt>
      <trkpt lat="43.35221" lon="-0.54352">
        <ele>183.268433</ele>
        <time>2012-03-15T12:48:14Z</time>
      </trkpt>
      <trkpt lat="43.35234" lon="-0.54351">
        <ele>186.633179</ele>
        <time>2012-03-15T12:48:23Z</time>
      </trkpt>
      <trkpt lat="43.35241" lon="-0.5435">
        <ele>187.59436</ele>
        <time>2012-03-15T12:48:28Z</time>
      </trkpt>
      <trkpt lat="43.35255" lon="-0.54348">
        <ele>190.958984</ele>
        <time>2012-03-15T12:48:39Z</time>
      </trkpt>
      <trkpt lat="43.35272" lon="-0.54346">
        <ele>194.804321</ele>
        <time>2012-03-15T12:48:51Z</time>
      </trkpt>
      <trkpt lat="43.35273" lon="-0.54346">
        <ele>194.804321</ele>
        <time>2012-03-15T12:48:52Z</time>
      </trkpt>
      <trkpt lat="43.35284" lon="-0.54343">
        <ele>196.726929</ele>
        <time>2012-03-15T12:49:01Z</time>
      </trkpt>
      <trkpt lat="43.35303" lon="-0.54341">
        <ele>198.168945</ele>
        <time>2012-03-15T12:49:17Z</time>
      </trkpt>
      <trkpt lat="43.35295" lon="-0.54292">
        <ele>197.688232</ele>
        <time>2012-03-15T12:49:31Z</time>
      </trkpt>
      <trkpt lat="43.35282" lon="-0.54215">
        <ele>196.726929</ele>
        <time>2012-03-15T12:49:47Z</time>
      </trkpt>
      <trkpt lat="43.35253" lon="-0.54124">
        <ele>196.246338</ele>
        <time>2012-03-15T12:50:08Z</time>
      </trkpt>
      <trkpt lat="43.35252" lon="-0.54118">
        <ele>197.20752</ele>
        <time>2012-03-15T12:50:10Z</time>
      </trkpt>
      <trkpt lat="43.35257" lon="-0.54104">
        <ele>201.052856</ele>
        <time>2012-03-15T12:50:18Z</time>
      </trkpt>
      <trkpt lat="43.35255" lon="-0.541">
        <ele>198.649536</ele>
        <time>2012-03-15T12:50:25Z</time>
      </trkpt>
      <trkpt lat="43.35252" lon="-0.54095">
        <ele>200.572266</ele>
        <time>2012-03-15T12:50:29Z</time>
      </trkpt>
      <trkpt lat="43.35247" lon="-0.54082">
        <ele>201.533569</ele>
        <time>2012-03-15T12:50:36Z</time>
      </trkpt>
      <trkpt lat="43.35243" lon="-0.54068">
        <ele>201.533569</ele>
        <time>2012-03-15T12:50:42Z</time>
      </trkpt>
      <trkpt lat="43.35237" lon="-0.5406">
        <ele>202.014282</ele>
        <time>2012-03-15T12:50:47Z</time>
      </trkpt>
      <trkpt lat="43.35236" lon="-0.54054">
        <ele>203.93689</ele>
        <time>2012-03-15T12:50:50Z</time>
      </trkpt>
      <trkpt lat="43.35235" lon="-0.54046">
        <ele>205.378784</ele>
        <time>2012-03-15T12:50:54Z</time>
      </trkpt>
      <trkpt lat="43.35229" lon="-0.54013">
        <ele>207.301392</ele>
        <time>2012-03-15T12:51:11Z</time>
      </trkpt>
      <trkpt lat="43.35219" lon="-0.54">
        <ele>209.704834</ele>
        <time>2012-03-15T12:51:19Z</time>
      </trkpt>
      <trkpt lat="43.35214" lon="-0.53979">
        <ele>211.627441</ele>
        <time>2012-03-15T12:51:32Z</time>
      </trkpt>
      <trkpt lat="43.35214" lon="-0.53976">
        <ele>212.588623</ele>
        <time>2012-03-15T12:51:34Z</time>
      </trkpt>
      <trkpt lat="43.35208" lon="-0.53958">
        <ele>216.43396</ele>
        <time>2012-03-15T12:51:50Z</time>
      </trkpt>
      <trkpt lat="43.35204" lon="-0.53946">
        <ele>219.317993</ele>
        <time>2012-03-15T12:52:01Z</time>
      </trkpt>
      <trkpt lat="43.35201" lon="-0.53937">
        <ele>222.682495</ele>
        <time>2012-03-15T12:52:13Z</time>
      </trkpt>
      <trkpt lat="43.352" lon="-0.53936">
        <ele>221.240601</ele>
        <time>2012-03-15T12:52:14Z</time>
      </trkpt>
      <trkpt lat="43.35197" lon="-0.53935">
        <ele>223.163208</ele>
        <time>2012-03-15T12:52:17Z</time>
      </trkpt>
      <trkpt lat="43.35188" lon="-0.53926">
        <ele>226.527832</ele>
        <time>2012-03-15T12:52:32Z</time>
      </trkpt>
      <trkpt lat="43.35182" lon="-0.53915">
        <ele>229.892334</ele>
        <time>2012-03-15T12:52:48Z</time>
      </trkpt>
      <trkpt lat="43.3518" lon="-0.5391">
        <ele>231.334351</ele>
        <time>2012-03-15T12:52:53Z</time>
      </trkpt>
      <trkpt lat="43.35176" lon="-0.53903">
        <ele>234.218384</ele>
        <time>2012-03-15T12:53:01Z</time>
      </trkpt>
      <trkpt lat="43.35173" lon="-0.53894">
        <ele>234.699097</ele>
        <time>2012-03-15T12:53:20Z</time>
      </trkpt>
      <trkpt lat="43.35166" lon="-0.53884">
        <ele>234.218384</ele>
        <time>2012-03-15T12:53:33Z</time>
      </trkpt>
      <trkpt lat="43.35167" lon="-0.53876">
        <ele>233.25708</ele>
        <time>2012-03-15T12:53:37Z</time>
      </trkpt>
      <trkpt lat="43.35163" lon="-0.53865">
        <ele>228.450439</ele>
        <time>2012-03-15T12:53:41Z</time>
      </trkpt>
      <trkpt lat="43.3516" lon="-0.53857">
        <ele>227.489136</ele>
        <time>2012-03-15T12:53:43Z</time>
      </trkpt>
      <trkpt lat="43.35158" lon="-0.53847">
        <ele>224.605225</ele>
        <time>2012-03-15T12:53:46Z</time>
      </trkpt>
      <trkpt lat="43.35149" lon="-0.53812">
        <ele>219.317993</ele>
        <time>2012-03-15T12:53:52Z</time>
      </trkpt>
      <trkpt lat="43.35144" lon="-0.53796">
        <ele>214.51123</ele>
        <time>2012-03-15T12:53:54Z</time>
      </trkpt>
      <trkpt lat="43.35141" lon="-0.53789">
        <ele>214.03064</ele>
        <time>2012-03-15T12:53:55Z</time>
      </trkpt>
      <trkpt lat="43.35132" lon="-0.5375">
        <ele>209.704834</ele>
        <time>2012-03-15T12:53:59Z</time>
      </trkpt>
      <trkpt lat="43.35129" lon="-0.53739">
        <ele>209.704834</ele>
        <time>2012-03-15T12:54:00Z</time>
      </trkpt>
      <trkpt lat="43.35118" lon="-0.53679">
        <ele>207.782104</ele>
        <time>2012-03-15T12:54:06Z</time>
      </trkpt>
      <trkpt lat="43.35101" lon="-0.53645">
        <ele>204.898071</ele>
        <time>2012-03-15T12:54:11Z</time>
      </trkpt>
      <trkpt lat="43.35088" lon="-0.53628">
        <ele>206.340088</ele>
        <time>2012-03-15T12:54:14Z</time>
      </trkpt>
      <trkpt lat="43.35075" lon="-0.5359">
        <ele>204.898071</ele>
        <time>2012-03-15T12:54:21Z</time>
      </trkpt>
      <trkpt lat="43.35079" lon="-0.53574">
        <ele>208.262817</ele>
        <time>2012-03-15T12:54:27Z</time>
      </trkpt>
      <trkpt lat="43.35079" lon="-0.53552">
        <ele>211.627441</ele>
        <time>2012-03-15T12:54:37Z</time>
      </trkpt>
      <trkpt lat="43.35073" lon="-0.53528">
        <ele>214.51123</ele>
        <time>2012-03-15T12:54:48Z</time>
      </trkpt>
      <trkpt lat="43.35061" lon="-0.53484">
        <ele>213.069336</ele>
        <time>2012-03-15T12:55:04Z</time>
      </trkpt>
      <trkpt lat="43.35059" lon="-0.53459">
        <ele>213.069336</ele>
        <time>2012-03-15T12:55:08Z</time>
      </trkpt>
      <trkpt lat="43.35054" lon="-0.53427">
        <ele>211.146729</ele>
        <time>2012-03-15T12:55:12Z</time>
      </trkpt>
      <trkpt lat="43.35032" lon="-0.5336">
        <ele>210.666016</ele>
        <time>2012-03-15T12:55:23Z</time>
      </trkpt>
      <trkpt lat="43.35023" lon="-0.53344">
        <ele>208.743408</ele>
        <time>2012-03-15T12:55:27Z</time>
      </trkpt>
      <trkpt lat="43.35019" lon="-0.53339">
        <ele>205.859497</ele>
        <time>2012-03-15T12:55:29Z</time>
      </trkpt>
      <trkpt lat="43.35003" lon="-0.5332">
        <ele>206.340088</ele>
        <time>2012-03-15T12:55:33Z</time>
      </trkpt>
      <trkpt lat="43.34985" lon="-0.53306">
        <ele>204.41748</ele>
        <time>2012-03-15T12:55:36Z</time>
      </trkpt>
      <trkpt lat="43.34976" lon="-0.53292">
        <ele>203.456177</ele>
        <time>2012-03-15T12:55:38Z</time>
      </trkpt>
      <trkpt lat="43.34964" lon="-0.53243">
        <ele>202.494873</ele>
        <time>2012-03-15T12:55:45Z</time>
      </trkpt>
      <trkpt lat="43.34958" lon="-0.53232">
        <ele>202.494873</ele>
        <time>2012-03-15T12:55:47Z</time>
      </trkpt>
      <trkpt lat="43.34925" lon="-0.5318">
        <ele>199.130127</ele>
        <time>2012-03-15T12:55:58Z</time>
      </trkpt>
      <trkpt lat="43.34897" lon="-0.53172">
        <ele>196.726929</ele>
        <time>2012-03-15T12:56:07Z</time>
      </trkpt>
      <trkpt lat="43.34892" lon="-0.53172">
        <ele>196.726929</ele>
        <time>2012-03-15T12:56:08Z</time>
      </trkpt>
      <trkpt lat="43.34838" lon="-0.53167">
        <ele>194.804321</ele>
        <time>2012-03-15T12:56:17Z</time>
      </trkpt>
      <trkpt lat="43.34806" lon="-0.53163">
        <ele>194.804321</ele>
        <time>2012-03-15T12:56:24Z</time>
      </trkpt>
      <trkpt lat="43.34774" lon="-0.5315">
        <ele>198.168945</ele>
        <time>2012-03-15T12:56:34Z</time>
      </trkpt>
      <trkpt lat="43.34763" lon="-0.53146">
        <ele>198.649536</ele>
        <time>2012-03-15T12:56:38Z</time>
      </trkpt>
      <trkpt lat="43.34752" lon="-0.53119">
        <ele>201.052856</ele>
        <time>2012-03-15T12:56:47Z</time>
      </trkpt>
      <trkpt lat="43.34749" lon="-0.53116">
        <ele>200.572266</ele>
        <time>2012-03-15T12:56:48Z</time>
      </trkpt>
      <trkpt lat="43.34732" lon="-0.53094">
        <ele>204.41748</ele>
        <time>2012-03-15T12:56:58Z</time>
      </trkpt>
      <trkpt lat="43.34708" lon="-0.53068">
        <ele>204.41748</ele>
        <time>2012-03-15T12:57:11Z</time>
      </trkpt>
      <trkpt lat="43.34699" lon="-0.53067">
        <ele>205.859497</ele>
        <time>2012-03-15T12:57:14Z</time>
      </trkpt>
      <trkpt lat="43.34691" lon="-0.53061">
        <ele>207.782104</ele>
        <time>2012-03-15T12:57:18Z</time>
      </trkpt>
      <trkpt lat="43.34671" lon="-0.53034">
        <ele>209.224121</ele>
        <time>2012-03-15T12:57:31Z</time>
      </trkpt>
      <trkpt lat="43.34655" lon="-0.53024">
        <ele>210.666016</ele>
        <time>2012-03-15T12:57:43Z</time>
      </trkpt>
      <trkpt lat="43.34633" lon="-0.53001">
        <ele>212.108032</ele>
        <time>2012-03-15T12:57:56Z</time>
      </trkpt>
      <trkpt lat="43.3461" lon="-0.52979">
        <ele>211.627441</ele>
        <time>2012-03-15T12:58:06Z</time>
      </trkpt>
      <trkpt lat="43.34583" lon="-0.52958">
        <ele>214.03064</ele>
        <time>2012-03-15T12:58:18Z</time>
      </trkpt>
      <trkpt lat="43.34555" lon="-0.52933">
        <ele>214.51123</ele>
        <time>2012-03-15T12:58:30Z</time>
      </trkpt>
      <trkpt lat="43.34536" lon="-0.52918">
        <ele>214.991943</ele>
        <time>2012-03-15T12:58:40Z</time>
      </trkpt>
      <trkpt lat="43.34532" lon="-0.52914">
        <ele>214.03064</ele>
        <time>2012-03-15T12:58:41Z</time>
      </trkpt>
      <trkpt lat="43.34517" lon="-0.52891">
        <ele>213.069336</ele>
        <time>2012-03-15T12:58:45Z</time>
      </trkpt>
      <trkpt lat="43.34492" lon="-0.52859">
        <ele>213.069336</ele>
        <time>2012-03-15T12:58:53Z</time>
      </trkpt>
      <trkpt lat="43.34486" lon="-0.52851">
        <ele>214.51123</ele>
        <time>2012-03-15T12:58:56Z</time>
      </trkpt>
      <trkpt lat="43.34472" lon="-0.52825">
        <ele>215.953247</ele>
        <time>2012-03-15T12:59:06Z</time>
      </trkpt>
      <trkpt lat="43.34465" lon="-0.52803">
        <ele>215.953247</ele>
        <time>2012-03-15T12:59:11Z</time>
      </trkpt>
      <trkpt lat="43.34463" lon="-0.52777">
        <ele>214.51123</ele>
        <time>2012-03-15T12:59:14Z</time>
      </trkpt>
      <trkpt lat="43.34454" lon="-0.52727">
        <ele>216.43396</ele>
        <time>2012-03-15T12:59:22Z</time>
      </trkpt>
      <trkpt lat="43.34455" lon="-0.52719">
        <ele>216.43396</ele>
        <time>2012-03-15T12:59:24Z</time>
      </trkpt>
      <trkpt lat="43.34435" lon="-0.52694">
        <ele>214.991943</ele>
        <time>2012-03-15T12:59:34Z</time>
      </trkpt>
      <trkpt lat="43.34435" lon="-0.52686">
        <ele>214.991943</ele>
        <time>2012-03-15T12:59:36Z</time>
      </trkpt>
      <trkpt lat="43.34423" lon="-0.52676">
        <ele>213.550049</ele>
        <time>2012-03-15T12:59:41Z</time>
      </trkpt>
      <trkpt lat="43.34421" lon="-0.52658">
        <ele>213.550049</ele>
        <time>2012-03-15T12:59:45Z</time>
      </trkpt>
      <trkpt lat="43.34418" lon="-0.52643">
        <ele>211.627441</ele>
        <time>2012-03-15T12:59:48Z</time>
      </trkpt>
      <trkpt lat="43.34414" lon="-0.52615">
        <ele>213.069336</ele>
        <time>2012-03-15T12:59:56Z</time>
      </trkpt>
      <trkpt lat="43.34404" lon="-0.52613">
        <ele>211.146729</ele>
        <time>2012-03-15T13:00:00Z</time>
      </trkpt>
      <trkpt lat="43.34398" lon="-0.52613">
        <ele>210.666016</ele>
        <time>2012-03-15T13:00:04Z</time>
      </trkpt>
      <trkpt lat="43.34394" lon="-0.52608">
        <ele>212.108032</ele>
        <time>2012-03-15T13:00:08Z</time>
      </trkpt>
      <trkpt lat="43.34382" lon="-0.52586">
        <ele>210.666016</ele>
        <time>2012-03-15T13:00:15Z</time>
      </trkpt>
      <trkpt lat="43.34374" lon="-0.52571">
        <ele>209.704834</ele>
        <time>2012-03-15T13:00:18Z</time>
      </trkpt>
      <trkpt lat="43.34363" lon="-0.52532">
        <ele>209.224121</ele>
        <time>2012-03-15T13:00:27Z</time>
      </trkpt>
      <trkpt lat="43.34356" lon="-0.52516">
        <ele>208.262817</ele>
        <time>2012-03-15T13:00:31Z</time>
      </trkpt>
      <trkpt lat="43.34331" lon="-0.52478">
        <ele>208.262817</ele>
        <time>2012-03-15T13:00:42Z</time>
      </trkpt>
      <trkpt lat="43.34323" lon="-0.52468">
        <ele>206.820679</ele>
        <time>2012-03-15T13:00:44Z</time>
      </trkpt>
      <trkpt lat="43.34316" lon="-0.52459">
        <ele>206.820679</ele>
        <time>2012-03-15T13:00:46Z</time>
      </trkpt>
      <trkpt lat="43.34304" lon="-0.52446">
        <ele>205.378784</ele>
        <time>2012-03-15T13:00:49Z</time>
      </trkpt>
      <trkpt lat="43.34293" lon="-0.52424">
        <ele>206.340088</ele>
        <time>2012-03-15T13:00:53Z</time>
      </trkpt>
      <trkpt lat="43.34281" lon="-0.52367">
        <ele>208.262817</ele>
        <time>2012-03-15T13:01:05Z</time>
      </trkpt>
      <trkpt lat="43.34258" lon="-0.52339">
        <ele>209.224121</ele>
        <time>2012-03-15T13:01:15Z</time>
      </trkpt>
      <trkpt lat="43.34252" lon="-0.52336">
        <ele>209.704834</ele>
        <time>2012-03-15T13:01:19Z</time>
      </trkpt>
      <trkpt lat="43.3422" lon="-0.52332">
        <ele>209.224121</ele>
        <time>2012-03-15T13:01:33Z</time>
      </trkpt>
      <trkpt lat="43.34199" lon="-0.52318">
        <ele>211.627441</ele>
        <time>2012-03-15T13:01:42Z</time>
      </trkpt>
      <trkpt lat="43.34175" lon="-0.52296">
        <ele>213.069336</ele>
        <time>2012-03-15T13:01:52Z</time>
      </trkpt>
      <trkpt lat="43.34147" lon="-0.52273">
        <ele>215.472656</ele>
        <time>2012-03-15T13:02:06Z</time>
      </trkpt>
      <trkpt lat="43.34123" lon="-0.52264">
        <ele>215.472656</ele>
        <time>2012-03-15T13:02:17Z</time>
      </trkpt>
      <trkpt lat="43.34106" lon="-0.52243">
        <ele>213.550049</ele>
        <time>2012-03-15T13:02:22Z</time>
      </trkpt>
      <trkpt lat="43.34087" lon="-0.52219">
        <ele>212.588623</ele>
        <time>2012-03-15T13:02:27Z</time>
      </trkpt>
      <trkpt lat="43.34066" lon="-0.52206">
        <ele>212.108032</ele>
        <time>2012-03-15T13:02:32Z</time>
      </trkpt>
      <trkpt lat="43.34044" lon="-0.522">
        <ele>211.146729</ele>
        <time>2012-03-15T13:02:36Z</time>
      </trkpt>
      <trkpt lat="43.34006" lon="-0.52172">
        <ele>213.069336</ele>
        <time>2012-03-15T13:02:47Z</time>
      </trkpt>
      <trkpt lat="43.33963" lon="-0.52156">
        <ele>214.991943</ele>
        <time>2012-03-15T13:03:00Z</time>
      </trkpt>
      <trkpt lat="43.33925" lon="-0.52146">
        <ele>218.83728</ele>
        <time>2012-03-15T13:03:12Z</time>
      </trkpt>
      <trkpt lat="43.33908" lon="-0.52135">
        <ele>217.875977</ele>
        <time>2012-03-15T13:03:19Z</time>
      </trkpt>
      <trkpt lat="43.33903" lon="-0.5213">
        <ele>218.356567</ele>
        <time>2012-03-15T13:03:21Z</time>
      </trkpt>
      <trkpt lat="43.33897" lon="-0.52121">
        <ele>217.395386</ele>
        <time>2012-03-15T13:03:23Z</time>
      </trkpt>
      <trkpt lat="43.3389" lon="-0.52112">
        <ele>216.43396</ele>
        <time>2012-03-15T13:03:25Z</time>
      </trkpt>
      <trkpt lat="43.33829" lon="-0.52038">
        <ele>214.51123</ele>
        <time>2012-03-15T13:03:39Z</time>
      </trkpt>
      <trkpt lat="43.33818" lon="-0.5198">
        <ele>215.953247</ele>
        <time>2012-03-15T13:03:51Z</time>
      </trkpt>
      <trkpt lat="43.33813" lon="-0.51923">
        <ele>215.953247</ele>
        <time>2012-03-15T13:04:04Z</time>
      </trkpt>
      <trkpt lat="43.33795" lon="-0.51888">
        <ele>214.991943</ele>
        <time>2012-03-15T13:04:14Z</time>
      </trkpt>
      <trkpt lat="43.33771" lon="-0.51835">
        <ele>213.069336</ele>
        <time>2012-03-15T13:04:27Z</time>
      </trkpt>
      <trkpt lat="43.33765" lon="-0.5182">
        <ele>212.588623</ele>
        <time>2012-03-15T13:04:31Z</time>
      </trkpt>
      <trkpt lat="43.33756" lon="-0.51814">
        <ele>212.588623</ele>
        <time>2012-03-15T13:04:33Z</time>
      </trkpt>
      <trkpt lat="43.33713" lon="-0.51765">
        <ele>210.185425</ele>
        <time>2012-03-15T13:04:45Z</time>
      </trkpt>
      <trkpt lat="43.33708" lon="-0.51759">
        <ele>211.146729</ele>
        <time>2012-03-15T13:04:46Z</time>
      </trkpt>
      <trkpt lat="43.33669" lon="-0.51716">
        <ele>210.185425</ele>
        <time>2012-03-15T13:04:57Z</time>
      </trkpt>
      <trkpt lat="43.33634" lon="-0.51695">
        <ele>208.262817</ele>
        <time>2012-03-15T13:05:03Z</time>
      </trkpt>
      <trkpt lat="43.33609" lon="-0.51673">
        <ele>207.301392</ele>
        <time>2012-03-15T13:05:08Z</time>
      </trkpt>
      <trkpt lat="43.33586" lon="-0.51659">
        <ele>206.820679</ele>
        <time>2012-03-15T13:05:13Z</time>
      </trkpt>
      <trkpt lat="43.33526" lon="-0.51627">
        <ele>204.41748</ele>
        <time>2012-03-15T13:05:22Z</time>
      </trkpt>
      <trkpt lat="43.33491" lon="-0.51595">
        <ele>202.494873</ele>
        <time>2012-03-15T13:05:28Z</time>
      </trkpt>
      <trkpt lat="43.33455" lon="-0.51515">
        <ele>204.898071</ele>
        <time>2012-03-15T13:05:41Z</time>
      </trkpt>
      <trkpt lat="43.3342" lon="-0.51425">
        <ele>206.820679</ele>
        <time>2012-03-15T13:05:59Z</time>
      </trkpt>
      <trkpt lat="43.33395" lon="-0.51351">
        <ele>207.782104</ele>
        <time>2012-03-15T13:06:13Z</time>
      </trkpt>
      <trkpt lat="43.33379" lon="-0.51296">
        <ele>210.666016</ele>
        <time>2012-03-15T13:06:27Z</time>
      </trkpt>
      <trkpt lat="43.33364" lon="-0.51258">
        <ele>214.991943</ele>
        <time>2012-03-15T13:06:42Z</time>
      </trkpt>
      <trkpt lat="43.33351" lon="-0.51243">
        <ele>215.472656</ele>
        <time>2012-03-15T13:06:52Z</time>
      </trkpt>
      <trkpt lat="43.33342" lon="-0.51254">
        <ele>214.51123</ele>
        <time>2012-03-15T13:06:55Z</time>
      </trkpt>
      <trkpt lat="43.33332" lon="-0.51279">
        <ele>214.03064</ele>
        <time>2012-03-15T13:06:59Z</time>
      </trkpt>
      <trkpt lat="43.33328" lon="-0.5132">
        <ele>216.914673</ele>
        <time>2012-03-15T13:07:07Z</time>
      </trkpt>
      <trkpt lat="43.33308" lon="-0.51388">
        <ele>219.317993</ele>
        <time>2012-03-15T13:07:23Z</time>
      </trkpt>
      <trkpt lat="43.33279" lon="-0.51447">
        <ele>218.356567</ele>
        <time>2012-03-15T13:07:39Z</time>
      </trkpt>
      <trkpt lat="43.33255" lon="-0.51456">
        <ele>213.069336</ele>
        <time>2012-03-15T13:07:43Z</time>
      </trkpt>
      <trkpt lat="43.33235" lon="-0.51471">
        <ele>210.666016</ele>
        <time>2012-03-15T13:07:46Z</time>
      </trkpt>
      <trkpt lat="43.33221" lon="-0.51485">
        <ele>207.782104</ele>
        <time>2012-03-15T13:07:49Z</time>
      </trkpt>
      <trkpt lat="43.33198" lon="-0.51513">
        <ele>203.93689</ele>
        <time>2012-03-15T13:07:54Z</time>
      </trkpt>
      <trkpt lat="43.33192" lon="-0.51519">
        <ele>202.975464</ele>
        <time>2012-03-15T13:07:56Z</time>
      </trkpt>
      <trkpt lat="43.33184" lon="-0.5155">
        <ele>204.41748</ele>
        <time>2012-03-15T13:08:05Z</time>
      </trkpt>
      <trkpt lat="43.33182" lon="-0.51576">
        <ele>207.301392</ele>
        <time>2012-03-15T13:08:17Z</time>
      </trkpt>
      <trkpt lat="43.33178" lon="-0.51594">
        <ele>210.666016</ele>
        <time>2012-03-15T13:08:27Z</time>
      </trkpt>
      <trkpt lat="43.33177" lon="-0.51602">
        <ele>211.627441</ele>
        <time>2012-03-15T13:08:31Z</time>
      </trkpt>
      <trkpt lat="43.3318" lon="-0.51622">
        <ele>215.472656</ele>
        <time>2012-03-15T13:08:41Z</time>
      </trkpt>
      <trkpt lat="43.33194" lon="-0.51636">
        <ele>217.395386</ele>
        <time>2012-03-15T13:08:53Z</time>
      </trkpt>
      <trkpt lat="43.33222" lon="-0.51653">
        <ele>215.472656</ele>
        <time>2012-03-15T13:09:05Z</time>
      </trkpt>
      <trkpt lat="43.33234" lon="-0.51664">
        <ele>214.991943</ele>
        <time>2012-03-15T13:09:09Z</time>
      </trkpt>
      <trkpt lat="43.33258" lon="-0.51688">
        <ele>214.51123</ele>
        <time>2012-03-15T13:09:18Z</time>
      </trkpt>
      <trkpt lat="43.33296" lon="-0.51714">
        <ele>214.991943</ele>
        <time>2012-03-15T13:09:29Z</time>
      </trkpt>
      <trkpt lat="43.33302" lon="-0.51718">
        <ele>214.51123</ele>
        <time>2012-03-15T13:09:31Z</time>
      </trkpt>
      <trkpt lat="43.3331" lon="-0.51724">
        <ele>214.51123</ele>
        <time>2012-03-15T13:09:33Z</time>
      </trkpt>
      <trkpt lat="43.33347" lon="-0.51778">
        <ele>211.627441</ele>
        <time>2012-03-15T13:09:44Z</time>
      </trkpt>
      <trkpt lat="43.33366" lon="-0.51848">
        <ele>211.146729</ele>
        <time>2012-03-15T13:09:58Z</time>
      </trkpt>
      <trkpt lat="43.33376" lon="-0.51904">
        <ele>211.146729</ele>
        <time>2012-03-15T13:10:10Z</time>
      </trkpt>
      <trkpt lat="43.33376" lon="-0.51912">
        <ele>211.627441</ele>
        <time>2012-03-15T13:10:12Z</time>
      </trkpt>
      <trkpt lat="43.33365" lon="-0.51966">
        <ele>214.03064</ele>
        <time>2012-03-15T13:10:25Z</time>
      </trkpt>
      <trkpt lat="43.33369" lon="-0.52009">
        <ele>214.51123</ele>
        <time>2012-03-15T13:10:36Z</time>
      </trkpt>
      <trkpt lat="43.33372" lon="-0.52025">
        <ele>213.550049</ele>
        <time>2012-03-15T13:10:39Z</time>
      </trkpt>
      <trkpt lat="43.33381" lon="-0.52064">
        <ele>212.108032</ele>
        <time>2012-03-15T13:10:46Z</time>
      </trkpt>
      <trkpt lat="43.33386" lon="-0.52131">
        <ele>211.146729</ele>
        <time>2012-03-15T13:10:59Z</time>
      </trkpt>
      <trkpt lat="43.33393" lon="-0.52216">
        <ele>210.666016</ele>
        <time>2012-03-15T13:11:14Z</time>
      </trkpt>
      <trkpt lat="43.33397" lon="-0.52262">
        <ele>210.666016</ele>
        <time>2012-03-15T13:11:22Z</time>
      </trkpt>
      <trkpt lat="43.33395" lon="-0.52304">
        <ele>214.51123</ele>
        <time>2012-03-15T13:11:32Z</time>
      </trkpt>
      <trkpt lat="43.33391" lon="-0.5235">
        <ele>216.43396</ele>
        <time>2012-03-15T13:11:44Z</time>
      </trkpt>
      <trkpt lat="43.33384" lon="-0.52376">
        <ele>219.317993</ele>
        <time>2012-03-15T13:11:58Z</time>
      </trkpt>
      <trkpt lat="43.33384" lon="-0.52377">
        <ele>219.798584</ele>
        <time>2012-03-15T13:11:59Z</time>
      </trkpt>
      <trkpt lat="43.33381" lon="-0.52385">
        <ele>221.240601</ele>
        <time>2012-03-15T13:12:04Z</time>
      </trkpt>
      <trkpt lat="43.33375" lon="-0.52398">
        <ele>223.643799</ele>
        <time>2012-03-15T13:12:19Z</time>
      </trkpt>
      <trkpt lat="43.33373" lon="-0.524">
        <ele>224.605225</ele>
        <time>2012-03-15T13:12:21Z</time>
      </trkpt>
      <trkpt lat="43.33371" lon="-0.52405">
        <ele>226.047119</ele>
        <time>2012-03-15T13:12:26Z</time>
      </trkpt>
      <trkpt lat="43.33363" lon="-0.52415">
        <ele>228.931152</ele>
        <time>2012-03-15T13:12:39Z</time>
      </trkpt>
      <trkpt lat="43.33359" lon="-0.52415">
        <ele>229.892334</ele>
        <time>2012-03-15T13:12:46Z</time>
      </trkpt>
      <trkpt lat="43.33355" lon="-0.5241">
        <ele>229.892334</ele>
        <time>2012-03-15T13:12:50Z</time>
      </trkpt>
      <trkpt lat="43.33343" lon="-0.52374">
        <ele>232.776489</ele>
        <time>2012-03-15T13:13:11Z</time>
      </trkpt>
      <trkpt lat="43.33342" lon="-0.52372">
        <ele>232.776489</ele>
        <time>2012-03-15T13:13:12Z</time>
      </trkpt>
      <trkpt lat="43.33332" lon="-0.52341">
        <ele>235.660278</ele>
        <time>2012-03-15T13:13:30Z</time>
      </trkpt>
      <trkpt lat="43.33323" lon="-0.52316">
        <ele>239.024902</ele>
        <time>2012-03-15T13:13:45Z</time>
      </trkpt>
      <trkpt lat="43.33322" lon="-0.52314">
        <ele>239.024902</ele>
        <time>2012-03-15T13:13:46Z</time>
      </trkpt>
      <trkpt lat="43.33316" lon="-0.5229">
        <ele>241.908936</ele>
        <time>2012-03-15T13:14:00Z</time>
      </trkpt>
      <trkpt lat="43.33306" lon="-0.52259">
        <ele>245.273438</ele>
        <time>2012-03-15T13:14:17Z</time>
      </trkpt>
      <trkpt lat="43.33305" lon="-0.52257">
        <ele>245.273438</ele>
        <time>2012-03-15T13:14:18Z</time>
      </trkpt>
      <trkpt lat="43.33291" lon="-0.52219">
        <ele>246.715454</ele>
        <time>2012-03-15T13:14:36Z</time>
      </trkpt>
      <trkpt lat="43.33284" lon="-0.52184">
        <ele>249.118774</ele>
        <time>2012-03-15T13:14:51Z</time>
      </trkpt>
      <trkpt lat="43.33277" lon="-0.52119">
        <ele>249.118774</ele>
        <time>2012-03-15T13:15:08Z</time>
      </trkpt>
      <trkpt lat="43.33279" lon="-0.52109">
        <ele>249.118774</ele>
        <time>2012-03-15T13:15:10Z</time>
      </trkpt>
      <trkpt lat="43.33282" lon="-0.52069">
        <ele>247.196045</ele>
        <time>2012-03-15T13:15:17Z</time>
      </trkpt>
      <trkpt lat="43.33286" lon="-0.5205">
        <ele>245.75415</ele>
        <time>2012-03-15T13:15:21Z</time>
      </trkpt>
      <trkpt lat="43.33282" lon="-0.5201">
        <ele>244.792847</ele>
        <time>2012-03-15T13:15:27Z</time>
      </trkpt>
      <trkpt lat="43.33279" lon="-0.51961">
        <ele>244.312256</ele>
        <time>2012-03-15T13:15:35Z</time>
      </trkpt>
      <trkpt lat="43.33272" lon="-0.5194">
        <ele>244.792847</ele>
        <time>2012-03-15T13:15:38Z</time>
      </trkpt>
      <trkpt lat="43.33261" lon="-0.51889">
        <ele>244.792847</ele>
        <time>2012-03-15T13:15:46Z</time>
      </trkpt>
      <trkpt lat="43.33245" lon="-0.51826">
        <ele>244.792847</ele>
        <time>2012-03-15T13:15:56Z</time>
      </trkpt>
      <trkpt lat="43.33235" lon="-0.51798">
        <ele>244.312256</ele>
        <time>2012-03-15T13:16:01Z</time>
      </trkpt>
      <trkpt lat="43.33223" lon="-0.51785">
        <ele>245.273438</ele>
        <time>2012-03-15T13:16:04Z</time>
      </trkpt>
      <trkpt lat="43.33205" lon="-0.51769">
        <ele>243.831543</ele>
        <time>2012-03-15T13:16:08Z</time>
      </trkpt>
      <trkpt lat="43.33178" lon="-0.51749">
        <ele>239.986206</ele>
        <time>2012-03-15T13:16:14Z</time>
      </trkpt>
      <trkpt lat="43.33156" lon="-0.51737">
        <ele>234.699097</ele>
        <time>2012-03-15T13:16:20Z</time>
      </trkpt>
      <trkpt lat="43.33151" lon="-0.51735">
        <ele>233.737671</ele>
        <time>2012-03-15T13:16:22Z</time>
      </trkpt>
      <trkpt lat="43.33144" lon="-0.51732">
        <ele>232.295776</ele>
        <time>2012-03-15T13:16:25Z</time>
      </trkpt>
      <trkpt lat="43.33133" lon="-0.51718">
        <ele>231.334351</ele>
        <time>2012-03-15T13:16:28Z</time>
      </trkpt>
      <trkpt lat="43.33128" lon="-0.51702">
        <ele>233.25708</ele>
        <time>2012-03-15T13:16:35Z</time>
      </trkpt>
      <trkpt lat="43.33112" lon="-0.51688">
        <ele>237.102295</ele>
        <time>2012-03-15T13:16:47Z</time>
      </trkpt>
      <trkpt lat="43.3311" lon="-0.51687">
        <ele>237.102295</ele>
        <time>2012-03-15T13:16:48Z</time>
      </trkpt>
      <trkpt lat="43.33099" lon="-0.51675">
        <ele>240.467041</ele>
        <time>2012-03-15T13:16:58Z</time>
      </trkpt>
      <trkpt lat="43.33086" lon="-0.51654">
        <ele>243.831543</ele>
        <time>2012-03-15T13:17:14Z</time>
      </trkpt>
      <trkpt lat="43.33066" lon="-0.5163">
        <ele>244.792847</ele>
        <time>2012-03-15T13:17:32Z</time>
      </trkpt>
      <trkpt lat="43.33037" lon="-0.51603">
        <ele>247.676758</ele>
        <time>2012-03-15T13:17:49Z</time>
      </trkpt>
      <trkpt lat="43.33005" lon="-0.51567">
        <ele>248.638184</ele>
        <time>2012-03-15T13:18:06Z</time>
      </trkpt>
      <trkpt lat="43.32972" lon="-0.51523">
        <ele>251.522095</ele>
        <time>2012-03-15T13:18:27Z</time>
      </trkpt>
      <trkpt lat="43.32947" lon="-0.51493">
        <ele>253.444702</ele>
        <time>2012-03-15T13:18:40Z</time>
      </trkpt>
      <trkpt lat="43.32927" lon="-0.51465">
        <ele>256.809326</ele>
        <time>2012-03-15T13:18:53Z</time>
      </trkpt>
      <trkpt lat="43.32877" lon="-0.5143">
        <ele>258.251343</ele>
        <time>2012-03-15T13:19:14Z</time>
      </trkpt>
      <trkpt lat="43.3282" lon="-0.51412">
        <ele>255.848022</ele>
        <time>2012-03-15T13:19:29Z</time>
      </trkpt>
      <trkpt lat="43.32811" lon="-0.51402">
        <ele>255.848022</ele>
        <time>2012-03-15T13:19:32Z</time>
      </trkpt>
      <trkpt lat="43.32762" lon="-0.51347">
        <ele>253.444702</ele>
        <time>2012-03-15T13:19:44Z</time>
      </trkpt>
      <trkpt lat="43.32703" lon="-0.51298">
        <ele>254.406006</ele>
        <time>2012-03-15T13:20:01Z</time>
      </trkpt>
      <trkpt lat="43.32692" lon="-0.51291">
        <ele>256.328735</ele>
        <time>2012-03-15T13:20:04Z</time>
      </trkpt>
      <trkpt lat="43.32645" lon="-0.5125">
        <ele>259.693359</ele>
        <time>2012-03-15T13:20:20Z</time>
      </trkpt>
      <trkpt lat="43.32626" lon="-0.51234">
        <ele>260.654541</ele>
        <time>2012-03-15T13:20:27Z</time>
      </trkpt>
      <trkpt lat="43.32613" lon="-0.51223">
        <ele>262.096558</ele>
        <time>2012-03-15T13:20:32Z</time>
      </trkpt>
      <trkpt lat="43.32559" lon="-0.51169">
        <ele>262.577148</ele>
        <time>2012-03-15T13:20:53Z</time>
      </trkpt>
      <trkpt lat="43.3251" lon="-0.51104">
        <ele>262.577148</ele>
        <time>2012-03-15T13:21:12Z</time>
      </trkpt>
      <trkpt lat="43.32488" lon="-0.51029">
        <ele>264.019287</ele>
        <time>2012-03-15T13:21:30Z</time>
      </trkpt>
      <trkpt lat="43.32482" lon="-0.50999">
        <ele>263.057861</ele>
        <time>2012-03-15T13:21:37Z</time>
      </trkpt>
      <trkpt lat="43.32475" lon="-0.50984">
        <ele>262.096558</ele>
        <time>2012-03-15T13:21:40Z</time>
      </trkpt>
      <trkpt lat="43.3245" lon="-0.50993">
        <ele>257.770752</ele>
        <time>2012-03-15T13:21:47Z</time>
      </trkpt>
      <trkpt lat="43.32447" lon="-0.51001">
        <ele>257.290039</ele>
        <time>2012-03-15T13:21:48Z</time>
      </trkpt>
      <trkpt lat="43.32437" lon="-0.51027">
        <ele>254.886597</ele>
        <time>2012-03-15T13:21:51Z</time>
      </trkpt>
      <trkpt lat="43.32423" lon="-0.51064">
        <ele>251.522095</ele>
        <time>2012-03-15T13:21:56Z</time>
      </trkpt>
      <trkpt lat="43.32414" lon="-0.51095">
        <ele>248.157593</ele>
        <time>2012-03-15T13:21:59Z</time>
      </trkpt>
      <trkpt lat="43.32411" lon="-0.5112">
        <ele>244.312256</ele>
        <time>2012-03-15T13:22:01Z</time>
      </trkpt>
      <trkpt lat="43.3241" lon="-0.51134">
        <ele>244.312256</ele>
        <time>2012-03-15T13:22:02Z</time>
      </trkpt>
      <trkpt lat="43.3241" lon="-0.51164">
        <ele>239.505493</ele>
        <time>2012-03-15T13:22:04Z</time>
      </trkpt>
      <trkpt lat="43.32416" lon="-0.5122">
        <ele>233.737671</ele>
        <time>2012-03-15T13:22:08Z</time>
      </trkpt>
      <trkpt lat="43.32419" lon="-0.5124">
        <ele>231.814941</ele>
        <time>2012-03-15T13:22:10Z</time>
      </trkpt>
      <trkpt lat="43.32423" lon="-0.51259">
        <ele>229.411743</ele>
        <time>2012-03-15T13:22:12Z</time>
      </trkpt>
      <trkpt lat="43.32427" lon="-0.51287">
        <ele>224.124512</ele>
        <time>2012-03-15T13:22:15Z</time>
      </trkpt>
      <trkpt lat="43.32424" lon="-0.51312">
        <ele>219.798584</ele>
        <time>2012-03-15T13:22:18Z</time>
      </trkpt>
      <trkpt lat="43.32411" lon="-0.51328">
        <ele>216.43396</ele>
        <time>2012-03-15T13:22:21Z</time>
      </trkpt>
      <trkpt lat="43.32381" lon="-0.51324">
        <ele>213.069336</ele>
        <time>2012-03-15T13:22:25Z</time>
      </trkpt>
      <trkpt lat="43.32364" lon="-0.51323">
        <ele>210.185425</ele>
        <time>2012-03-15T13:22:27Z</time>
      </trkpt>
      <trkpt lat="43.32339" lon="-0.51332">
        <ele>202.975464</ele>
        <time>2012-03-15T13:22:30Z</time>
      </trkpt>
      <trkpt lat="43.3233" lon="-0.51338">
        <ele>202.014282</ele>
        <time>2012-03-15T13:22:31Z</time>
      </trkpt>
      <trkpt lat="43.32304" lon="-0.51361">
        <ele>198.168945</ele>
        <time>2012-03-15T13:22:34Z</time>
      </trkpt>
      <trkpt lat="43.32297" lon="-0.51368">
        <ele>196.246338</ele>
        <time>2012-03-15T13:22:35Z</time>
      </trkpt>
      <trkpt lat="43.32274" lon="-0.51386">
        <ele>191.439575</ele>
        <time>2012-03-15T13:22:38Z</time>
      </trkpt>
      <trkpt lat="43.32252" lon="-0.51398">
        <ele>187.59436</ele>
        <time>2012-03-15T13:22:41Z</time>
      </trkpt>
      <trkpt lat="43.32224" lon="-0.51412">
        <ele>182.307129</ele>
        <time>2012-03-15T13:22:46Z</time>
      </trkpt>
      <trkpt lat="43.32217" lon="-0.51438">
        <ele>178.942627</ele>
        <time>2012-03-15T13:22:49Z</time>
      </trkpt>
      <trkpt lat="43.3221" lon="-0.51455">
        <ele>175.09729</ele>
        <time>2012-03-15T13:22:51Z</time>
      </trkpt>
      <trkpt lat="43.32204" lon="-0.5147">
        <ele>173.655273</ele>
        <time>2012-03-15T13:22:53Z</time>
      </trkpt>
      <trkpt lat="43.32184" lon="-0.51483">
        <ele>169.810059</ele>
        <time>2012-03-15T13:22:56Z</time>
      </trkpt>
      <trkpt lat="43.32168" lon="-0.5149">
        <ele>167.406738</ele>
        <time>2012-03-15T13:22:58Z</time>
      </trkpt>
      <trkpt lat="43.32144" lon="-0.51498">
        <ele>163.561523</ele>
        <time>2012-03-15T13:23:01Z</time>
      </trkpt>
      <trkpt lat="43.32114" lon="-0.51496">
        <ele>159.235474</ele>
        <time>2012-03-15T13:23:04Z</time>
      </trkpt>
      <trkpt lat="43.32083" lon="-0.51488">
        <ele>156.351562</ele>
        <time>2012-03-15T13:23:07Z</time>
      </trkpt>
      <trkpt lat="43.32059" lon="-0.51479">
        <ele>152.986938</ele>
        <time>2012-03-15T13:23:10Z</time>
      </trkpt>
      <trkpt lat="43.32046" lon="-0.51473">
        <ele>150.103027</ele>
        <time>2012-03-15T13:23:12Z</time>
      </trkpt>
      <trkpt lat="43.32038" lon="-0.51488">
        <ele>149.141602</ele>
        <time>2012-03-15T13:23:18Z</time>
      </trkpt>
      <trkpt lat="43.3205" lon="-0.51508">
        <ele>147.699707</ele>
        <time>2012-03-15T13:23:22Z</time>
      </trkpt>
      <trkpt lat="43.32095" lon="-0.51547">
        <ele>146.257812</ele>
        <time>2012-03-15T13:23:32Z</time>
      </trkpt>
      <trkpt lat="43.32122" lon="-0.51569">
        <ele>146.257812</ele>
        <time>2012-03-15T13:23:38Z</time>
      </trkpt>
      <trkpt lat="43.32141" lon="-0.51584">
        <ele>144.815796</ele>
        <time>2012-03-15T13:23:41Z</time>
      </trkpt>
      <trkpt lat="43.32195" lon="-0.51627">
        <ele>143.373657</ele>
        <time>2012-03-15T13:23:50Z</time>
      </trkpt>
      <trkpt lat="43.32204" lon="-0.51638">
        <ele>143.85437</ele>
        <time>2012-03-15T13:23:52Z</time>
      </trkpt>
      <trkpt lat="43.32235" lon="-0.5167">
        <ele>141.45105</ele>
        <time>2012-03-15T13:23:59Z</time>
      </trkpt>
      <trkpt lat="43.32252" lon="-0.51691">
        <ele>141.45105</ele>
        <time>2012-03-15T13:24:03Z</time>
      </trkpt>
      <trkpt lat="43.3226" lon="-0.51703">
        <ele>140.970459</ele>
        <time>2012-03-15T13:24:05Z</time>
      </trkpt>
      <trkpt lat="43.32313" lon="-0.51799">
        <ele>138.086548</ele>
        <time>2012-03-15T13:24:19Z</time>
      </trkpt>
      <trkpt lat="43.32334" lon="-0.5182">
        <ele>138.567261</ele>
        <time>2012-03-15T13:24:23Z</time>
      </trkpt>
      <trkpt lat="43.32355" lon="-0.51838">
        <ele>138.086548</ele>
        <time>2012-03-15T13:24:27Z</time>
      </trkpt>
      <trkpt lat="43.32383" lon="-0.51867">
        <ele>138.086548</ele>
        <time>2012-03-15T13:24:33Z</time>
      </trkpt>
      <trkpt lat="43.32424" lon="-0.51898">
        <ele>140.489868</ele>
        <time>2012-03-15T13:24:44Z</time>
      </trkpt>
      <trkpt lat="43.32459" lon="-0.51928">
        <ele>142.893066</ele>
        <time>2012-03-15T13:24:55Z</time>
      </trkpt>
      <trkpt lat="43.325" lon="-0.51957">
        <ele>143.373657</ele>
        <time>2012-03-15T13:25:07Z</time>
      </trkpt>
      <trkpt lat="43.32542" lon="-0.51993">
        <ele>142.412476</ele>
        <time>2012-03-15T13:25:19Z</time>
      </trkpt>
      <trkpt lat="43.32551" lon="-0.52">
        <ele>141.931763</ele>
        <time>2012-03-15T13:25:21Z</time>
      </trkpt>
      <trkpt lat="43.32566" lon="-0.52022">
        <ele>141.45105</ele>
        <time>2012-03-15T13:25:25Z</time>
      </trkpt>
      <trkpt lat="43.32577" lon="-0.52043">
        <ele>140.009155</ele>
        <time>2012-03-15T13:25:28Z</time>
      </trkpt>
      <trkpt lat="43.32593" lon="-0.52074">
        <ele>138.567261</ele>
        <time>2012-03-15T13:25:32Z</time>
      </trkpt>
      <trkpt lat="43.32655" lon="-0.52168">
        <ele>137.605835</ele>
        <time>2012-03-15T13:25:47Z</time>
      </trkpt>
      <trkpt lat="43.32707" lon="-0.52218">
        <ele>138.086548</ele>
        <time>2012-03-15T13:25:59Z</time>
      </trkpt>
      <trkpt lat="43.32739" lon="-0.52236">
        <ele>136.644653</ele>
        <time>2012-03-15T13:26:05Z</time>
      </trkpt>
      <trkpt lat="43.32769" lon="-0.52255">
        <ele>136.16394</ele>
        <time>2012-03-15T13:26:11Z</time>
      </trkpt>
      <trkpt lat="43.32789" lon="-0.52266">
        <ele>138.086548</ele>
        <time>2012-03-15T13:26:15Z</time>
      </trkpt>
      <trkpt lat="43.32832" lon="-0.52286">
        <ele>139.528442</ele>
        <time>2012-03-15T13:26:26Z</time>
      </trkpt>
      <trkpt lat="43.32875" lon="-0.52289">
        <ele>141.45105</ele>
        <time>2012-03-15T13:26:37Z</time>
      </trkpt>
      <trkpt lat="43.32913" lon="-0.52287">
        <ele>143.85437</ele>
        <time>2012-03-15T13:26:48Z</time>
      </trkpt>
      <trkpt lat="43.32941" lon="-0.52308">
        <ele>145.296387</ele>
        <time>2012-03-15T13:26:58Z</time>
      </trkpt>
      <trkpt lat="43.32953" lon="-0.52354">
        <ele>146.738403</ele>
        <time>2012-03-15T13:27:08Z</time>
      </trkpt>
      <trkpt lat="43.32971" lon="-0.52452">
        <ele>145.296387</ele>
        <time>2012-03-15T13:27:23Z</time>
      </trkpt>
      <trkpt lat="43.32975" lon="-0.52471">
        <ele>144.815796</ele>
        <time>2012-03-15T13:27:26Z</time>
      </trkpt>
      <trkpt lat="43.33012" lon="-0.52566">
        <ele>141.45105</ele>
        <time>2012-03-15T13:27:40Z</time>
      </trkpt>
      <trkpt lat="43.33035" lon="-0.52621">
        <ele>139.047852</ele>
        <time>2012-03-15T13:27:47Z</time>
      </trkpt>
      <trkpt lat="43.33043" lon="-0.52637">
        <ele>138.086548</ele>
        <time>2012-03-15T13:27:49Z</time>
      </trkpt>
      <trkpt lat="43.33064" lon="-0.52706">
        <ele>139.047852</ele>
        <time>2012-03-15T13:27:58Z</time>
      </trkpt>
      <trkpt lat="43.3307" lon="-0.52731">
        <ele>138.567261</ele>
        <time>2012-03-15T13:28:02Z</time>
      </trkpt>
      <trkpt lat="43.33077" lon="-0.52749">
        <ele>139.047852</ele>
        <time>2012-03-15T13:28:05Z</time>
      </trkpt>
      <trkpt lat="43.331" lon="-0.52794">
        <ele>139.047852</ele>
        <time>2012-03-15T13:28:13Z</time>
      </trkpt>
      <trkpt lat="43.3311" lon="-0.52808">
        <ele>138.567261</ele>
        <time>2012-03-15T13:28:16Z</time>
      </trkpt>
      <trkpt lat="43.33126" lon="-0.52827">
        <ele>138.086548</ele>
        <time>2012-03-15T13:28:20Z</time>
      </trkpt>
      <trkpt lat="43.33186" lon="-0.52923">
        <ele>138.567261</ele>
        <time>2012-03-15T13:28:37Z</time>
      </trkpt>
      <trkpt lat="43.3319" lon="-0.52928">
        <ele>138.567261</ele>
        <time>2012-03-15T13:28:38Z</time>
      </trkpt>
      <trkpt lat="43.33208" lon="-0.52947">
        <ele>138.567261</ele>
        <time>2012-03-15T13:28:43Z</time>
      </trkpt>
      <trkpt lat="43.33217" lon="-0.52955">
        <ele>139.528442</ele>
        <time>2012-03-15T13:28:45Z</time>
      </trkpt>
      <trkpt lat="43.33231" lon="-0.52967">
        <ele>138.086548</ele>
        <time>2012-03-15T13:28:48Z</time>
      </trkpt>
      <trkpt lat="43.33251" lon="-0.52984">
        <ele>138.086548</ele>
        <time>2012-03-15T13:28:52Z</time>
      </trkpt>
      <trkpt lat="43.3327" lon="-0.53004">
        <ele>139.528442</ele>
        <time>2012-03-15T13:28:56Z</time>
      </trkpt>
      <trkpt lat="43.3329" lon="-0.53027">
        <ele>140.489868</ele>
        <time>2012-03-15T13:29:01Z</time>
      </trkpt>
      <trkpt lat="43.33301" lon="-0.53047">
        <ele>140.489868</ele>
        <time>2012-03-15T13:29:05Z</time>
      </trkpt>
      <trkpt lat="43.33305" lon="-0.53058">
        <ele>141.45105</ele>
        <time>2012-03-15T13:29:07Z</time>
      </trkpt>
      <trkpt lat="43.33312" lon="-0.53078">
        <ele>141.45105</ele>
        <time>2012-03-15T13:29:11Z</time>
      </trkpt>
      <trkpt lat="43.33315" lon="-0.5309">
        <ele>140.970459</ele>
        <time>2012-03-15T13:29:13Z</time>
      </trkpt>
      <trkpt lat="43.3333" lon="-0.53146">
        <ele>139.528442</ele>
        <time>2012-03-15T13:29:22Z</time>
      </trkpt>
      <trkpt lat="43.33334" lon="-0.53168">
        <ele>139.528442</ele>
        <time>2012-03-15T13:29:25Z</time>
      </trkpt>
      <trkpt lat="43.33344" lon="-0.53192">
        <ele>139.528442</ele>
        <time>2012-03-15T13:29:29Z</time>
      </trkpt>
      <trkpt lat="43.33359" lon="-0.53209">
        <ele>139.047852</ele>
        <time>2012-03-15T13:29:33Z</time>
      </trkpt>
      <trkpt lat="43.33372" lon="-0.53215">
        <ele>140.489868</ele>
        <time>2012-03-15T13:29:36Z</time>
      </trkpt>
      <trkpt lat="43.33392" lon="-0.53212">
        <ele>139.528442</ele>
        <time>2012-03-15T13:29:40Z</time>
      </trkpt>
      <trkpt lat="43.33421" lon="-0.53202">
        <ele>138.567261</ele>
        <time>2012-03-15T13:29:45Z</time>
      </trkpt>
      <trkpt lat="43.33437" lon="-0.53195">
        <ele>138.086548</ele>
        <time>2012-03-15T13:29:48Z</time>
      </trkpt>
      <trkpt lat="43.33479" lon="-0.53195">
        <ele>138.086548</ele>
        <time>2012-03-15T13:29:59Z</time>
      </trkpt>
      <trkpt lat="43.33504" lon="-0.53181">
        <ele>138.567261</ele>
        <time>2012-03-15T13:30:08Z</time>
      </trkpt>
      <trkpt lat="43.33541" lon="-0.53125">
        <ele>139.528442</ele>
        <time>2012-03-15T13:30:24Z</time>
      </trkpt>
      <trkpt lat="43.33569" lon="-0.53085">
        <ele>141.45105</ele>
        <time>2012-03-15T13:30:36Z</time>
      </trkpt>
      <trkpt lat="43.33598" lon="-0.5305">
        <ele>142.412476</ele>
        <time>2012-03-15T13:30:47Z</time>
      </trkpt>
      <trkpt lat="43.33632" lon="-0.5301">
        <ele>142.893066</ele>
        <time>2012-03-15T13:31:00Z</time>
      </trkpt>
      <trkpt lat="43.33657" lon="-0.52962">
        <ele>146.738403</ele>
        <time>2012-03-15T13:31:14Z</time>
      </trkpt>
      <trkpt lat="43.33662" lon="-0.52955">
        <ele>147.218994</ele>
        <time>2012-03-15T13:31:18Z</time>
      </trkpt>
      <trkpt lat="43.33685" lon="-0.52929">
        <ele>149.622314</ele>
        <time>2012-03-15T13:31:36Z</time>
      </trkpt>
      <trkpt lat="43.3369" lon="-0.52923">
        <ele>151.064209</ele>
        <time>2012-03-15T13:31:41Z</time>
      </trkpt>
      <trkpt lat="43.33694" lon="-0.52919">
        <ele>152.025757</ele>
        <time>2012-03-15T13:31:44Z</time>
      </trkpt>
      <trkpt lat="43.33708" lon="-0.52902">
        <ele>155.870972</ele>
        <time>2012-03-15T13:31:58Z</time>
      </trkpt>
      <trkpt lat="43.33721" lon="-0.52884">
        <ele>158.754761</ele>
        <time>2012-03-15T13:32:13Z</time>
      </trkpt>
      <trkpt lat="43.33727" lon="-0.52877">
        <ele>159.235474</ele>
        <time>2012-03-15T13:32:25Z</time>
      </trkpt>
      <trkpt lat="43.33738" lon="-0.52863">
        <ele>162.600098</ele>
        <time>2012-03-15T13:32:39Z</time>
      </trkpt>
      <trkpt lat="43.33743" lon="-0.52855">
        <ele>162.600098</ele>
        <time>2012-03-15T13:32:54Z</time>
      </trkpt>
      <trkpt lat="43.33755" lon="-0.52841">
        <ele>165.964722</ele>
        <time>2012-03-15T13:33:07Z</time>
      </trkpt>
      <trkpt lat="43.33776" lon="-0.5282">
        <ele>169.329468</ele>
        <time>2012-03-15T13:33:26Z</time>
      </trkpt>
      <trkpt lat="43.33793" lon="-0.52811">
        <ele>172.69397</ele>
        <time>2012-03-15T13:33:41Z</time>
      </trkpt>
      <trkpt lat="43.33807" lon="-0.52814">
        <ele>175.577881</ele>
        <time>2012-03-15T13:33:53Z</time>
      </trkpt>
      <trkpt lat="43.33816" lon="-0.5282">
        <ele>179.423218</ele>
        <time>2012-03-15T13:34:03Z</time>
      </trkpt>
      <trkpt lat="43.33832" lon="-0.52828">
        <ele>180.384521</ele>
        <time>2012-03-15T13:34:22Z</time>
      </trkpt>
      <trkpt lat="43.33833" lon="-0.52829">
        <ele>181.345825</ele>
        <time>2012-03-15T13:34:24Z</time>
      </trkpt>
      <trkpt lat="43.33841" lon="-0.52835">
        <ele>182.787842</ele>
        <time>2012-03-15T13:34:40Z</time>
      </trkpt>
      <trkpt lat="43.33841" lon="-0.52874">
        <ele>184.229858</ele>
        <time>2012-03-15T13:34:58Z</time>
      </trkpt>
      <trkpt lat="43.33851" lon="-0.52912">
        <ele>184.710571</ele>
        <time>2012-03-15T13:35:11Z</time>
      </trkpt>
      <trkpt lat="43.33872" lon="-0.52925">
        <ele>188.075073</ele>
        <time>2012-03-15T13:35:23Z</time>
      </trkpt>
      <trkpt lat="43.33874" lon="-0.52926">
        <ele>188.555786</ele>
        <time>2012-03-15T13:35:24Z</time>
      </trkpt>
      <trkpt lat="43.33893" lon="-0.52933">
        <ele>191.920288</ele>
        <time>2012-03-15T13:35:36Z</time>
      </trkpt>
      <trkpt lat="43.33917" lon="-0.52935">
        <ele>194.804321</ele>
        <time>2012-03-15T13:35:55Z</time>
      </trkpt>
      <trkpt lat="43.33929" lon="-0.52934">
        <ele>197.688232</ele>
        <time>2012-03-15T13:36:05Z</time>
      </trkpt>
      <trkpt lat="43.33941" lon="-0.52935">
        <ele>201.052856</ele>
        <time>2012-03-15T13:36:16Z</time>
      </trkpt>
      <trkpt lat="43.33942" lon="-0.52936">
        <ele>201.533569</ele>
        <time>2012-03-15T13:36:17Z</time>
      </trkpt>
      <trkpt lat="43.33946" lon="-0.52969">
        <ele>201.533569</ele>
        <time>2012-03-15T13:36:32Z</time>
      </trkpt>
      <trkpt lat="43.3395" lon="-0.53033">
        <ele>201.533569</ele>
        <time>2012-03-15T13:36:48Z</time>
      </trkpt>
      <trkpt lat="43.33953" lon="-0.53095">
        <ele>202.014282</ele>
        <time>2012-03-15T13:37:02Z</time>
      </trkpt>
      <trkpt lat="43.33968" lon="-0.53143">
        <ele>203.456177</ele>
        <time>2012-03-15T13:37:16Z</time>
      </trkpt>
      <trkpt lat="43.33997" lon="-0.53169">
        <ele>205.859497</ele>
        <time>2012-03-15T13:37:31Z</time>
      </trkpt>
      <trkpt lat="43.34022" lon="-0.53177">
        <ele>207.782104</ele>
        <time>2012-03-15T13:37:45Z</time>
      </trkpt>
      <trkpt lat="43.34052" lon="-0.53179">
        <ele>209.224121</ele>
        <time>2012-03-15T13:38:02Z</time>
      </trkpt>
      <trkpt lat="43.34051" lon="-0.5318">
        <ele>208.262817</ele>
        <time>2012-03-15T13:38:10Z</time>
      </trkpt>
      <trkpt lat="43.34016" lon="-0.53174">
        <ele>207.782104</ele>
        <time>2012-03-15T13:38:25Z</time>
      </trkpt>
      <trkpt lat="43.34014" lon="-0.53176">
        <ele>208.743408</ele>
        <time>2012-03-15T13:38:33Z</time>
      </trkpt>
      <trkpt lat="43.3401" lon="-0.53182">
        <ele>204.898071</ele>
        <time>2012-03-15T13:38:48Z</time>
      </trkpt>
      <trkpt lat="43.34004" lon="-0.53191">
        <ele>202.494873</ele>
        <time>2012-03-15T13:39:02Z</time>
      </trkpt>
      <trkpt lat="43.33996" lon="-0.53198">
        <ele>201.533569</ele>
        <time>2012-03-15T13:39:17Z</time>
      </trkpt>
      <trkpt lat="43.33996" lon="-0.532">
        <ele>201.533569</ele>
        <time>2012-03-15T13:39:19Z</time>
      </trkpt>
      <trkpt lat="43.33991" lon="-0.53207">
        <ele>200.572266</ele>
        <time>2012-03-15T13:39:30Z</time>
      </trkpt>
      <trkpt lat="43.3397" lon="-0.53212">
        <ele>196.246338</ele>
        <time>2012-03-15T13:39:37Z</time>
      </trkpt>
      <trkpt lat="43.33953" lon="-0.53223">
        <ele>192.401123</ele>
        <time>2012-03-15T13:39:42Z</time>
      </trkpt>
      <trkpt lat="43.33938" lon="-0.5322">
        <ele>191.920288</ele>
        <time>2012-03-15T13:39:49Z</time>
      </trkpt>
      <trkpt lat="43.33917" lon="-0.53203">
        <ele>190.478394</ele>
        <time>2012-03-15T13:39:59Z</time>
      </trkpt>
      <trkpt lat="43.33907" lon="-0.53192">
        <ele>191.439575</ele>
        <time>2012-03-15T13:40:05Z</time>
      </trkpt>
      <trkpt lat="43.33887" lon="-0.53204">
        <ele>189.997681</ele>
        <time>2012-03-15T13:40:13Z</time>
      </trkpt>
      <trkpt lat="43.33869" lon="-0.53196">
        <ele>186.633179</ele>
        <time>2012-03-15T13:40:21Z</time>
      </trkpt>
      <trkpt lat="43.33847" lon="-0.53184">
        <ele>185.671753</ele>
        <time>2012-03-15T13:40:30Z</time>
      </trkpt>
      <trkpt lat="43.3384" lon="-0.53176">
        <ele>185.191162</ele>
        <time>2012-03-15T13:40:35Z</time>
      </trkpt>
      <trkpt lat="43.33826" lon="-0.53166">
        <ele>182.787842</ele>
        <time>2012-03-15T13:40:41Z</time>
      </trkpt>
      <trkpt lat="43.33816" lon="-0.53154">
        <ele>181.826416</ele>
        <time>2012-03-15T13:40:45Z</time>
      </trkpt>
      <trkpt lat="43.33803" lon="-0.53159">
        <ele>179.903809</ele>
        <time>2012-03-15T13:40:49Z</time>
      </trkpt>
      <trkpt lat="43.33795" lon="-0.53159">
        <ele>178.461914</ele>
        <time>2012-03-15T13:40:51Z</time>
      </trkpt>
      <trkpt lat="43.3377" lon="-0.53154">
        <ele>174.616577</ele>
        <time>2012-03-15T13:40:57Z</time>
      </trkpt>
      <trkpt lat="43.33768" lon="-0.53155">
        <ele>175.09729</ele>
        <time>2012-03-15T13:40:58Z</time>
      </trkpt>
      <trkpt lat="43.33748" lon="-0.53166">
        <ele>171.252075</ele>
        <time>2012-03-15T13:41:03Z</time>
      </trkpt>
      <trkpt lat="43.33733" lon="-0.53163">
        <ele>168.848755</ele>
        <time>2012-03-15T13:41:07Z</time>
      </trkpt>
      <trkpt lat="43.33713" lon="-0.53141">
        <ele>165.003418</ele>
        <time>2012-03-15T13:41:12Z</time>
      </trkpt>
      <trkpt lat="43.33709" lon="-0.53138">
        <ele>165.003418</ele>
        <time>2012-03-15T13:41:13Z</time>
      </trkpt>
      <trkpt lat="43.33687" lon="-0.53126">
        <ele>160.67749</ele>
        <time>2012-03-15T13:41:18Z</time>
      </trkpt>
      <trkpt lat="43.33679" lon="-0.53124">
        <ele>158.27417</ele>
        <time>2012-03-15T13:41:21Z</time>
      </trkpt>
      <trkpt lat="43.33647" lon="-0.53157">
        <ele>153.948364</ele>
        <time>2012-03-15T13:41:29Z</time>
      </trkpt>
      <trkpt lat="43.33641" lon="-0.53159">
        <ele>153.948364</ele>
        <time>2012-03-15T13:41:30Z</time>
      </trkpt>
      <trkpt lat="43.3363" lon="-0.5316">
        <ele>152.506348</ele>
        <time>2012-03-15T13:41:32Z</time>
      </trkpt>
      <trkpt lat="43.33613" lon="-0.5317">
        <ele>148.661011</ele>
        <time>2012-03-15T13:41:37Z</time>
      </trkpt>
      <trkpt lat="43.33576" lon="-0.53171">
        <ele>147.699707</ele>
        <time>2012-03-15T13:41:46Z</time>
      </trkpt>
      <trkpt lat="43.33554" lon="-0.53179">
        <ele>145.7771</ele>
        <time>2012-03-15T13:41:51Z</time>
      </trkpt>
      <trkpt lat="43.3355" lon="-0.53182">
        <ele>145.296387</ele>
        <time>2012-03-15T13:41:52Z</time>
      </trkpt>
      <trkpt lat="43.33536" lon="-0.53192">
        <ele>143.373657</ele>
        <time>2012-03-15T13:41:55Z</time>
      </trkpt>
      <trkpt lat="43.33528" lon="-0.532">
        <ele>141.931763</ele>
        <time>2012-03-15T13:41:57Z</time>
      </trkpt>
      <trkpt lat="43.3349" lon="-0.53222">
        <ele>140.489868</ele>
        <time>2012-03-15T13:42:05Z</time>
      </trkpt>
      <trkpt lat="43.33467" lon="-0.53247">
        <ele>137.605835</ele>
        <time>2012-03-15T13:42:13Z</time>
      </trkpt>
      <trkpt lat="43.33464" lon="-0.53249">
        <ele>137.605835</ele>
        <time>2012-03-15T13:42:15Z</time>
      </trkpt>
      <trkpt lat="43.33472" lon="-0.53266">
        <ele>138.086548</ele>
        <time>2012-03-15T13:42:24Z</time>
      </trkpt>
      <trkpt lat="43.33478" lon="-0.53275">
        <ele>137.605835</ele>
        <time>2012-03-15T13:42:28Z</time>
      </trkpt>
      <trkpt lat="43.33499" lon="-0.53293">
        <ele>140.489868</ele>
        <time>2012-03-15T13:42:42Z</time>
      </trkpt>
      <trkpt lat="43.33519" lon="-0.533">
        <ele>142.412476</ele>
        <time>2012-03-15T13:42:55Z</time>
      </trkpt>
      <trkpt lat="43.33543" lon="-0.53311">
        <ele>145.7771</ele>
        <time>2012-03-15T13:43:09Z</time>
      </trkpt>
      <trkpt lat="43.33577" lon="-0.53325">
        <ele>147.699707</ele>
        <time>2012-03-15T13:43:26Z</time>
      </trkpt>
      <trkpt lat="43.33604" lon="-0.53342">
        <ele>149.622314</ele>
        <time>2012-03-15T13:43:43Z</time>
      </trkpt>
      <trkpt lat="43.33631" lon="-0.53355">
        <ele>152.986938</ele>
        <time>2012-03-15T13:44:00Z</time>
      </trkpt>
      <trkpt lat="43.33645" lon="-0.53367">
        <ele>156.351562</ele>
        <time>2012-03-15T13:44:14Z</time>
      </trkpt>
      <trkpt lat="43.33659" lon="-0.5338">
        <ele>159.235474</ele>
        <time>2012-03-15T13:44:28Z</time>
      </trkpt>
      <trkpt lat="43.33687" lon="-0.53386">
        <ele>160.67749</ele>
        <time>2012-03-15T13:44:48Z</time>
      </trkpt>
      <trkpt lat="43.33717" lon="-0.53388">
        <ele>163.080811</ele>
        <time>2012-03-15T13:45:09Z</time>
      </trkpt>
      <trkpt lat="43.3374" lon="-0.53391">
        <ele>165.484131</ele>
        <time>2012-03-15T13:45:27Z</time>
      </trkpt>
      <trkpt lat="43.33743" lon="-0.53391">
        <ele>167.406738</ele>
        <time>2012-03-15T13:45:29Z</time>
      </trkpt>
      <trkpt lat="43.33767" lon="-0.53392">
        <ele>169.329468</ele>
        <time>2012-03-15T13:45:46Z</time>
      </trkpt>
      <trkpt lat="43.33787" lon="-0.534">
        <ele>172.69397</ele>
        <time>2012-03-15T13:46:03Z</time>
      </trkpt>
      <trkpt lat="43.33791" lon="-0.53404">
        <ele>173.174683</ele>
        <time>2012-03-15T13:46:07Z</time>
      </trkpt>
      <trkpt lat="43.33798" lon="-0.53413">
        <ele>175.577881</ele>
        <time>2012-03-15T13:46:16Z</time>
      </trkpt>
      <trkpt lat="43.33809" lon="-0.53421">
        <ele>176.539307</ele>
        <time>2012-03-15T13:46:29Z</time>
      </trkpt>
      <trkpt lat="43.3382" lon="-0.53428">
        <ele>180.384521</ele>
        <time>2012-03-15T13:46:41Z</time>
      </trkpt>
      <trkpt lat="43.33835" lon="-0.53441">
        <ele>182.307129</ele>
        <time>2012-03-15T13:46:59Z</time>
      </trkpt>
      <trkpt lat="43.33839" lon="-0.53448">
        <ele>184.229858</ele>
        <time>2012-03-15T13:47:15Z</time>
      </trkpt>
      <trkpt lat="43.33848" lon="-0.53463">
        <ele>187.59436</ele>
        <time>2012-03-15T13:47:29Z</time>
      </trkpt>
      <trkpt lat="43.33869" lon="-0.53472">
        <ele>189.516968</ele>
        <time>2012-03-15T13:47:46Z</time>
      </trkpt>
      <trkpt lat="43.33885" lon="-0.53479">
        <ele>191.439575</ele>
        <time>2012-03-15T13:48:01Z</time>
      </trkpt>
      <trkpt lat="43.3389" lon="-0.53481">
        <ele>192.881714</ele>
        <time>2012-03-15T13:48:05Z</time>
      </trkpt>
      <trkpt lat="43.339" lon="-0.53488">
        <ele>194.32373</ele>
        <time>2012-03-15T13:48:15Z</time>
      </trkpt>
      <trkpt lat="43.33909" lon="-0.53495">
        <ele>195.765625</ele>
        <time>2012-03-15T13:48:23Z</time>
      </trkpt>
      <trkpt lat="43.33917" lon="-0.53496">
        <ele>198.168945</ele>
        <time>2012-03-15T13:48:30Z</time>
      </trkpt>
      <trkpt lat="43.33935" lon="-0.535">
        <ele>199.61084</ele>
        <time>2012-03-15T13:48:45Z</time>
      </trkpt>
      <trkpt lat="43.33953" lon="-0.53506">
        <ele>202.014282</ele>
        <time>2012-03-15T13:49:00Z</time>
      </trkpt>
      <trkpt lat="43.33956" lon="-0.53508">
        <ele>203.456177</ele>
        <time>2012-03-15T13:49:03Z</time>
      </trkpt>
      <trkpt lat="43.3396" lon="-0.53512">
        <ele>203.93689</ele>
        <time>2012-03-15T13:49:07Z</time>
      </trkpt>
      <trkpt lat="43.33975" lon="-0.53536">
        <ele>205.378784</ele>
        <time>2012-03-15T13:49:23Z</time>
      </trkpt>
      <trkpt lat="43.33998" lon="-0.53545">
        <ele>206.340088</ele>
        <time>2012-03-15T13:49:36Z</time>
      </trkpt>
      <trkpt lat="43.34" lon="-0.53544">
        <ele>206.340088</ele>
        <time>2012-03-15T13:49:37Z</time>
      </trkpt>
      <trkpt lat="43.34006" lon="-0.53537">
        <ele>206.340088</ele>
        <time>2012-03-15T13:49:42Z</time>
      </trkpt>
      <trkpt lat="43.34009" lon="-0.53528">
        <ele>206.820679</ele>
        <time>2012-03-15T13:49:47Z</time>
      </trkpt>
      <trkpt lat="43.3401" lon="-0.5351">
        <ele>208.743408</ele>
        <time>2012-03-15T13:49:55Z</time>
      </trkpt>
      <trkpt lat="43.34022" lon="-0.53494">
        <ele>209.224121</ele>
        <time>2012-03-15T13:50:03Z</time>
      </trkpt>
      <trkpt lat="43.34041" lon="-0.53471">
        <ele>209.224121</ele>
        <time>2012-03-15T13:50:14Z</time>
      </trkpt>
      <trkpt lat="43.34061" lon="-0.53437">
        <ele>208.743408</ele>
        <time>2012-03-15T13:50:27Z</time>
      </trkpt>
      <trkpt lat="43.3409" lon="-0.53408">
        <ele>205.859497</ele>
        <time>2012-03-15T13:50:37Z</time>
      </trkpt>
      <trkpt lat="43.3412" lon="-0.53358">
        <ele>205.859497</ele>
        <time>2012-03-15T13:50:49Z</time>
      </trkpt>
      <trkpt lat="43.3413" lon="-0.53332">
        <ele>206.820679</ele>
        <time>2012-03-15T13:50:55Z</time>
      </trkpt>
      <trkpt lat="43.34146" lon="-0.53282">
        <ele>206.820679</ele>
        <time>2012-03-15T13:51:08Z</time>
      </trkpt>
      <trkpt lat="43.34154" lon="-0.53235">
        <ele>208.743408</ele>
        <time>2012-03-15T13:51:19Z</time>
      </trkpt>
      <trkpt lat="43.34164" lon="-0.53208">
        <ele>212.108032</ele>
        <time>2012-03-15T13:51:30Z</time>
      </trkpt>
      <trkpt lat="43.34168" lon="-0.532">
        <ele>213.069336</ele>
        <time>2012-03-15T13:51:34Z</time>
      </trkpt>
      <trkpt lat="43.3417" lon="-0.53192">
        <ele>213.069336</ele>
        <time>2012-03-15T13:51:38Z</time>
      </trkpt>
      <trkpt lat="43.34178" lon="-0.53186">
        <ele>214.51123</ele>
        <time>2012-03-15T13:51:43Z</time>
      </trkpt>
      <trkpt lat="43.34208" lon="-0.5315">
        <ele>213.550049</ele>
        <time>2012-03-15T13:51:58Z</time>
      </trkpt>
      <trkpt lat="43.34214" lon="-0.53136">
        <ele>212.588623</ele>
        <time>2012-03-15T13:52:01Z</time>
      </trkpt>
      <trkpt lat="43.3425" lon="-0.53093">
        <ele>213.069336</ele>
        <time>2012-03-15T13:52:13Z</time>
      </trkpt>
      <trkpt lat="43.34257" lon="-0.5308">
        <ele>213.069336</ele>
        <time>2012-03-15T13:52:16Z</time>
      </trkpt>
      <trkpt lat="43.34267" lon="-0.53057">
        <ele>213.550049</ele>
        <time>2012-03-15T13:52:20Z</time>
      </trkpt>
      <trkpt lat="43.34305" lon="-0.53016">
        <ele>214.51123</ele>
        <time>2012-03-15T13:52:34Z</time>
      </trkpt>
      <trkpt lat="43.34319" lon="-0.53006">
        <ele>214.03064</ele>
        <time>2012-03-15T13:52:37Z</time>
      </trkpt>
      <trkpt lat="43.34341" lon="-0.52994">
        <ele>213.550049</ele>
        <time>2012-03-15T13:52:41Z</time>
      </trkpt>
      <trkpt lat="43.34357" lon="-0.52989">
        <ele>212.588623</ele>
        <time>2012-03-15T13:52:44Z</time>
      </trkpt>
      <trkpt lat="43.34399" lon="-0.53013">
        <ele>212.108032</ele>
        <time>2012-03-15T13:52:52Z</time>
      </trkpt>
      <trkpt lat="43.34424" lon="-0.53061">
        <ele>214.03064</ele>
        <time>2012-03-15T13:53:04Z</time>
      </trkpt>
      <trkpt lat="43.34431" lon="-0.53095">
        <ele>214.991943</ele>
        <time>2012-03-15T13:53:11Z</time>
      </trkpt>
      <trkpt lat="43.34436" lon="-0.53178">
        <ele>214.03064</ele>
        <time>2012-03-15T13:53:23Z</time>
      </trkpt>
      <trkpt lat="43.3446" lon="-0.53254">
        <ele>213.069336</ele>
        <time>2012-03-15T13:53:34Z</time>
      </trkpt>
      <trkpt lat="43.34481" lon="-0.53295">
        <ele>214.03064</ele>
        <time>2012-03-15T13:53:42Z</time>
      </trkpt>
      <trkpt lat="43.345" lon="-0.53342">
        <ele>215.472656</ele>
        <time>2012-03-15T13:53:52Z</time>
      </trkpt>
      <trkpt lat="43.34499" lon="-0.53372">
        <ele>212.588623</ele>
        <time>2012-03-15T13:53:56Z</time>
      </trkpt>
      <trkpt lat="43.34507" lon="-0.53413">
        <ele>211.146729</ele>
        <time>2012-03-15T13:54:00Z</time>
      </trkpt>
      <trkpt lat="43.3452" lon="-0.53448">
        <ele>211.146729</ele>
        <time>2012-03-15T13:54:04Z</time>
      </trkpt>
      <trkpt lat="43.34528" lon="-0.53465">
        <ele>210.666016</ele>
        <time>2012-03-15T13:54:06Z</time>
      </trkpt>
      <trkpt lat="43.34538" lon="-0.53503">
        <ele>210.185425</ele>
        <time>2012-03-15T13:54:11Z</time>
      </trkpt>
      <trkpt lat="43.34538" lon="-0.53517">
        <ele>211.146729</ele>
        <time>2012-03-15T13:54:13Z</time>
      </trkpt>
      <trkpt lat="43.34539" lon="-0.5353">
        <ele>210.666016</ele>
        <time>2012-03-15T13:54:15Z</time>
      </trkpt>
      <trkpt lat="43.34537" lon="-0.53586">
        <ele>210.666016</ele>
        <time>2012-03-15T13:54:23Z</time>
      </trkpt>
      <trkpt lat="43.3455" lon="-0.53633">
        <ele>213.069336</ele>
        <time>2012-03-15T13:54:35Z</time>
      </trkpt>
      <trkpt lat="43.34567" lon="-0.53652">
        <ele>216.43396</ele>
        <time>2012-03-15T13:54:46Z</time>
      </trkpt>
      <trkpt lat="43.34569" lon="-0.53652">
        <ele>216.43396</ele>
        <time>2012-03-15T13:54:47Z</time>
      </trkpt>
      <trkpt lat="43.3459" lon="-0.53643">
        <ele>215.472656</ele>
        <time>2012-03-15T13:54:57Z</time>
      </trkpt>
      <trkpt lat="43.3461" lon="-0.53622">
        <ele>215.472656</ele>
        <time>2012-03-15T13:55:03Z</time>
      </trkpt>
      <trkpt lat="43.34635" lon="-0.53583">
        <ele>212.108032</ele>
        <time>2012-03-15T13:55:09Z</time>
      </trkpt>
      <trkpt lat="43.34645" lon="-0.53548">
        <ele>211.146729</ele>
        <time>2012-03-15T13:55:13Z</time>
      </trkpt>
      <trkpt lat="43.34661" lon="-0.53495">
        <ele>207.301392</ele>
        <time>2012-03-15T13:55:18Z</time>
      </trkpt>
      <trkpt lat="43.34686" lon="-0.5343">
        <ele>204.41748</ele>
        <time>2012-03-15T13:55:23Z</time>
      </trkpt>
      <trkpt lat="43.34696" lon="-0.534">
        <ele>203.456177</ele>
        <time>2012-03-15T13:55:26Z</time>
      </trkpt>
      <trkpt lat="43.34703" lon="-0.53358">
        <ele>202.494873</ele>
        <time>2012-03-15T13:55:30Z</time>
      </trkpt>
      <trkpt lat="43.34707" lon="-0.53316">
        <ele>201.052856</ele>
        <time>2012-03-15T13:55:34Z</time>
      </trkpt>
      <trkpt lat="43.34711" lon="-0.53297">
        <ele>200.572266</ele>
        <time>2012-03-15T13:55:36Z</time>
      </trkpt>
      <trkpt lat="43.34725" lon="-0.53261">
        <ele>200.091675</ele>
        <time>2012-03-15T13:55:41Z</time>
      </trkpt>
      <trkpt lat="43.34744" lon="-0.53229">
        <ele>198.649536</ele>
        <time>2012-03-15T13:55:46Z</time>
      </trkpt>
      <trkpt lat="43.34787" lon="-0.53178">
        <ele>196.726929</ele>
        <time>2012-03-15T13:55:54Z</time>
      </trkpt>
      <trkpt lat="43.34815" lon="-0.53163">
        <ele>196.726929</ele>
        <time>2012-03-15T13:55:58Z</time>
      </trkpt>
      <trkpt lat="43.34887" lon="-0.53168">
        <ele>196.726929</ele>
        <time>2012-03-15T13:56:09Z</time>
      </trkpt>
      <trkpt lat="43.34923" lon="-0.53172">
        <ele>198.168945</ele>
        <time>2012-03-15T13:56:20Z</time>
      </trkpt>
      <trkpt lat="43.34931" lon="-0.53186">
        <ele>199.61084</ele>
        <time>2012-03-15T13:56:24Z</time>
      </trkpt>
      <trkpt lat="43.34958" lon="-0.5323">
        <ele>201.052856</ele>
        <time>2012-03-15T13:56:36Z</time>
      </trkpt>
      <trkpt lat="43.34969" lon="-0.53264">
        <ele>201.533569</ele>
        <time>2012-03-15T13:56:48Z</time>
      </trkpt>
      <trkpt lat="43.34971" lon="-0.53283">
        <ele>201.052856</ele>
        <time>2012-03-15T13:56:52Z</time>
      </trkpt>
      <trkpt lat="43.34976" lon="-0.53307">
        <ele>198.168945</ele>
        <time>2012-03-15T13:56:55Z</time>
      </trkpt>
      <trkpt lat="43.34992" lon="-0.53349">
        <ele>198.168945</ele>
        <time>2012-03-15T13:57:00Z</time>
      </trkpt>
      <trkpt lat="43.34997" lon="-0.53372">
        <ele>197.20752</ele>
        <time>2012-03-15T13:57:03Z</time>
      </trkpt>
      <trkpt lat="43.35005" lon="-0.53501">
        <ele>194.804321</ele>
        <time>2012-03-15T13:57:18Z</time>
      </trkpt>
      <trkpt lat="43.35007" lon="-0.53613">
        <ele>193.843018</ele>
        <time>2012-03-15T13:57:32Z</time>
      </trkpt>
      <trkpt lat="43.35021" lon="-0.53665">
        <ele>190.958984</ele>
        <time>2012-03-15T13:57:38Z</time>
      </trkpt>
      <trkpt lat="43.35024" lon="-0.53674">
        <ele>190.958984</ele>
        <time>2012-03-15T13:57:39Z</time>
      </trkpt>
      <trkpt lat="43.35034" lon="-0.537">
        <ele>189.997681</ele>
        <time>2012-03-15T13:57:42Z</time>
      </trkpt>
      <trkpt lat="43.35031" lon="-0.53725">
        <ele>188.555786</ele>
        <time>2012-03-15T13:57:46Z</time>
      </trkpt>
      <trkpt lat="43.34996" lon="-0.53762">
        <ele>182.787842</ele>
        <time>2012-03-15T13:57:53Z</time>
      </trkpt>
      <trkpt lat="43.34985" lon="-0.53775">
        <ele>177.981201</ele>
        <time>2012-03-15T13:57:56Z</time>
      </trkpt>
      <trkpt lat="43.34982" lon="-0.5378">
        <ele>177.50061</ele>
        <time>2012-03-15T13:57:57Z</time>
      </trkpt>
      <trkpt lat="43.34979" lon="-0.53784">
        <ele>177.02002</ele>
        <time>2012-03-15T13:57:58Z</time>
      </trkpt>
      <trkpt lat="43.34974" lon="-0.53796">
        <ele>175.577881</ele>
        <time>2012-03-15T13:58:00Z</time>
      </trkpt>
      <trkpt lat="43.34971" lon="-0.53821">
        <ele>174.135864</ele>
        <time>2012-03-15T13:58:03Z</time>
      </trkpt>
      <trkpt lat="43.34973" lon="-0.53896">
        <ele>174.135864</ele>
        <time>2012-03-15T13:58:12Z</time>
      </trkpt>
      <trkpt lat="43.34994" lon="-0.53984">
        <ele>175.09729</ele>
        <time>2012-03-15T13:58:26Z</time>
      </trkpt>
      <trkpt lat="43.35" lon="-0.54004">
        <ele>175.577881</ele>
        <time>2012-03-15T13:58:29Z</time>
      </trkpt>
      <trkpt lat="43.35" lon="-0.54044">
        <ele>175.09729</ele>
        <time>2012-03-15T13:58:34Z</time>
      </trkpt>
      <trkpt lat="43.3499" lon="-0.54148">
        <ele>173.655273</ele>
        <time>2012-03-15T13:58:47Z</time>
      </trkpt>
      <trkpt lat="43.34998" lon="-0.54182">
        <ele>173.655273</ele>
        <time>2012-03-15T13:58:52Z</time>
      </trkpt>
      <trkpt lat="43.35008" lon="-0.54211">
        <ele>171.252075</ele>
        <time>2012-03-15T13:58:56Z</time>
      </trkpt>
      <trkpt lat="43.35002" lon="-0.54247">
        <ele>165.964722</ele>
        <time>2012-03-15T13:59:01Z</time>
      </trkpt>
      <trkpt lat="43.34997" lon="-0.54252">
        <ele>166.445312</ele>
        <time>2012-03-15T13:59:02Z</time>
      </trkpt>
      <trkpt lat="43.34981" lon="-0.54271">
        <ele>164.522705</ele>
        <time>2012-03-15T13:59:05Z</time>
      </trkpt>
      <trkpt lat="43.34969" lon="-0.54286">
        <ele>163.080811</ele>
        <time>2012-03-15T13:59:07Z</time>
      </trkpt>
      <trkpt lat="43.34941" lon="-0.5432">
        <ele>160.196899</ele>
        <time>2012-03-15T13:59:11Z</time>
      </trkpt>
      <trkpt lat="43.34927" lon="-0.54339">
        <ele>159.235474</ele>
        <time>2012-03-15T13:59:13Z</time>
      </trkpt>
      <trkpt lat="43.34914" lon="-0.54358">
        <ele>158.27417</ele>
        <time>2012-03-15T13:59:15Z</time>
      </trkpt>
      <trkpt lat="43.34886" lon="-0.54375">
        <ele>156.351562</ele>
        <time>2012-03-15T13:59:19Z</time>
      </trkpt>
      <trkpt lat="43.34849" lon="-0.54396">
        <ele>153.467651</ele>
        <time>2012-03-15T13:59:24Z</time>
      </trkpt>
      <trkpt lat="43.34796" lon="-0.54456">
        <ele>151.064209</ele>
        <time>2012-03-15T13:59:33Z</time>
      </trkpt>
      <trkpt lat="43.3477" lon="-0.54486">
        <ele>148.18042</ele>
        <time>2012-03-15T13:59:37Z</time>
      </trkpt>
      <trkpt lat="43.34749" lon="-0.54509">
        <ele>146.257812</ele>
        <time>2012-03-15T13:59:40Z</time>
      </trkpt>
      <trkpt lat="43.34727" lon="-0.54537">
        <ele>142.893066</ele>
        <time>2012-03-15T13:59:43Z</time>
      </trkpt>
      <trkpt lat="43.34719" lon="-0.54546">
        <ele>143.373657</ele>
        <time>2012-03-15T13:59:44Z</time>
      </trkpt>
      <trkpt lat="43.34687" lon="-0.54582">
        <ele>140.009155</ele>
        <time>2012-03-15T13:59:48Z</time>
      </trkpt>
      <trkpt lat="43.3466" lon="-0.54616">
        <ele>138.567261</ele>
        <time>2012-03-15T13:59:52Z</time>
      </trkpt>
      <trkpt lat="43.34648" lon="-0.54638">
        <ele>136.16394</ele>
        <time>2012-03-15T13:59:55Z</time>
      </trkpt>
      <trkpt lat="43.34664" lon="-0.54686">
        <ele>131.837891</ele>
        <time>2012-03-15T14:00:02Z</time>
      </trkpt>
      <trkpt lat="43.34671" lon="-0.54692">
        <ele>131.837891</ele>
        <time>2012-03-15T14:00:03Z</time>
      </trkpt>
      <trkpt lat="43.34679" lon="-0.54697">
        <ele>131.3573</ele>
        <time>2012-03-15T14:00:04Z</time>
      </trkpt>
      <trkpt lat="43.34742" lon="-0.54739">
        <ele>132.318604</ele>
        <time>2012-03-15T14:00:13Z</time>
      </trkpt>
      <trkpt lat="43.3476" lon="-0.54763">
        <ele>131.837891</ele>
        <time>2012-03-15T14:00:17Z</time>
      </trkpt>
      <trkpt lat="43.34811" lon="-0.54829">
        <ele>127.992554</ele>
        <time>2012-03-15T14:00:26Z</time>
      </trkpt>
      <trkpt lat="43.3484" lon="-0.54877">
        <ele>128.473389</ele>
        <time>2012-03-15T14:00:32Z</time>
      </trkpt>
      <trkpt lat="43.3486" lon="-0.54894">
        <ele>128.954102</ele>
        <time>2012-03-15T14:00:36Z</time>
      </trkpt>
      <trkpt lat="43.34904" lon="-0.54901">
        <ele>129.915283</ele>
        <time>2012-03-15T14:00:43Z</time>
      </trkpt>
      <trkpt lat="43.34932" lon="-0.54921">
        <ele>128.954102</ele>
        <time>2012-03-15T14:00:48Z</time>
      </trkpt>
      <trkpt lat="43.34954" lon="-0.54944">
        <ele>129.434692</ele>
        <time>2012-03-15T14:00:52Z</time>
      </trkpt>
      <trkpt lat="43.34971" lon="-0.54979">
        <ele>127.511963</ele>
        <time>2012-03-15T14:00:56Z</time>
      </trkpt>
      <trkpt lat="43.35026" lon="-0.55061">
        <ele>126.069946</ele>
        <time>2012-03-15T14:01:08Z</time>
      </trkpt>
      <trkpt lat="43.35095" lon="-0.55103">
        <ele>127.031372</ele>
        <time>2012-03-15T14:01:20Z</time>
      </trkpt>
      <trkpt lat="43.35141" lon="-0.55122">
        <ele>127.031372</ele>
        <time>2012-03-15T14:01:28Z</time>
      </trkpt>
      <trkpt lat="43.35146" lon="-0.55124">
        <ele>126.550659</ele>
        <time>2012-03-15T14:01:29Z</time>
      </trkpt>
      <trkpt lat="43.35166" lon="-0.55142">
        <ele>127.031372</ele>
        <time>2012-03-15T14:01:33Z</time>
      </trkpt>
      <trkpt lat="43.35202" lon="-0.55203">
        <ele>125.589355</ele>
        <time>2012-03-15T14:01:42Z</time>
      </trkpt>
      <trkpt lat="43.35211" lon="-0.55219">
        <ele>125.108765</ele>
        <time>2012-03-15T14:01:44Z</time>
      </trkpt>
      <trkpt lat="43.3522" lon="-0.55256">
        <ele>124.147339</ele>
        <time>2012-03-15T14:01:48Z</time>
      </trkpt>
      <trkpt lat="43.35223" lon="-0.5531">
        <ele>123.186157</ele>
        <time>2012-03-15T14:01:54Z</time>
      </trkpt>
      <trkpt lat="43.35236" lon="-0.55365">
        <ele>122.224731</ele>
        <time>2012-03-15T14:02:00Z</time>
      </trkpt>
      <trkpt lat="43.35312" lon="-0.55485">
        <ele>123.186157</ele>
        <time>2012-03-15T14:02:16Z</time>
      </trkpt>
      <trkpt lat="43.35317" lon="-0.55492">
        <ele>122.705444</ele>
        <time>2012-03-15T14:02:17Z</time>
      </trkpt>
      <trkpt lat="43.35329" lon="-0.55504">
        <ele>121.744141</ele>
        <time>2012-03-15T14:02:19Z</time>
      </trkpt>
      <trkpt lat="43.35382" lon="-0.55528">
        <ele>124.147339</ele>
        <time>2012-03-15T14:02:27Z</time>
      </trkpt>
      <trkpt lat="43.35401" lon="-0.55542">
        <ele>124.628052</ele>
        <time>2012-03-15T14:02:31Z</time>
      </trkpt>
      <trkpt lat="43.35413" lon="-0.55556">
        <ele>124.628052</ele>
        <time>2012-03-15T14:02:34Z</time>
      </trkpt>
      <trkpt lat="43.35426" lon="-0.55583">
        <ele>124.628052</ele>
        <time>2012-03-15T14:02:38Z</time>
      </trkpt>
      <trkpt lat="43.35439" lon="-0.5563">
        <ele>124.147339</ele>
        <time>2012-03-15T14:02:44Z</time>
      </trkpt>
      <trkpt lat="43.35453" lon="-0.55657">
        <ele>124.628052</ele>
        <time>2012-03-15T14:02:48Z</time>
      </trkpt>
      <trkpt lat="43.35478" lon="-0.55695">
        <ele>124.147339</ele>
        <time>2012-03-15T14:02:55Z</time>
      </trkpt>
      <trkpt lat="43.35538" lon="-0.55789">
        <ele>123.666748</ele>
        <time>2012-03-15T14:03:08Z</time>
      </trkpt>
      <trkpt lat="43.35553" lon="-0.55811">
        <ele>121.744141</ele>
        <time>2012-03-15T14:03:11Z</time>
      </trkpt>
      <trkpt lat="43.35575" lon="-0.5585">
        <ele>122.224731</ele>
        <time>2012-03-15T14:03:16Z</time>
      </trkpt>
      <trkpt lat="43.35595" lon="-0.55926">
        <ele>120.782837</ele>
        <time>2012-03-15T14:03:24Z</time>
      </trkpt>
      <trkpt lat="43.35612" lon="-0.55978">
        <ele>120.782837</ele>
        <time>2012-03-15T14:03:30Z</time>
      </trkpt>
      <trkpt lat="43.35657" lon="-0.56029">
        <ele>121.26355</ele>
        <time>2012-03-15T14:03:39Z</time>
      </trkpt>
      <trkpt lat="43.35693" lon="-0.56043">
        <ele>121.744141</ele>
        <time>2012-03-15T14:03:45Z</time>
      </trkpt>
      <trkpt lat="43.35715" lon="-0.56061">
        <ele>121.744141</ele>
        <time>2012-03-15T14:03:49Z</time>
      </trkpt>
      <trkpt lat="43.35747" lon="-0.56068">
        <ele>120.782837</ele>
        <time>2012-03-15T14:03:54Z</time>
      </trkpt>
      <trkpt lat="43.35772" lon="-0.5606">
        <ele>121.26355</ele>
        <time>2012-03-15T14:03:58Z</time>
      </trkpt>
      <trkpt lat="43.35805" lon="-0.5607">
        <ele>120.782837</ele>
        <time>2012-03-15T14:04:04Z</time>
      </trkpt>
      <trkpt lat="43.35813" lon="-0.5608">
        <ele>120.782837</ele>
        <time>2012-03-15T14:04:06Z</time>
      </trkpt>
      <trkpt lat="43.35824" lon="-0.56095">
        <ele>120.302124</ele>
        <time>2012-03-15T14:04:09Z</time>
      </trkpt>
      <trkpt lat="43.35839" lon="-0.56152">
        <ele>120.302124</ele>
        <time>2012-03-15T14:04:17Z</time>
      </trkpt>
      <trkpt lat="43.35853" lon="-0.5621">
        <ele>119.821411</ele>
        <time>2012-03-15T14:04:24Z</time>
      </trkpt>
      <trkpt lat="43.35852" lon="-0.56246">
        <ele>120.302124</ele>
        <time>2012-03-15T14:04:28Z</time>
      </trkpt>
      <trkpt lat="43.35833" lon="-0.56351">
        <ele>119.821411</ele>
        <time>2012-03-15T14:04:39Z</time>
      </trkpt>
      <trkpt lat="43.35829" lon="-0.56403">
        <ele>118.860107</ele>
        <time>2012-03-15T14:04:45Z</time>
      </trkpt>
      <trkpt lat="43.3583" lon="-0.56434">
        <ele>119.34082</ele>
        <time>2012-03-15T14:04:49Z</time>
      </trkpt>
      <trkpt lat="43.35819" lon="-0.56445">
        <ele>117.898804</ele>
        <time>2012-03-15T14:04:56Z</time>
      </trkpt>
      <trkpt lat="43.35817" lon="-0.56443">
        <ele>117.898804</ele>
        <time>2012-03-15T14:05:09Z</time>
      </trkpt>
      <trkpt lat="43.35817" lon="-0.56447">
        <ele>117.418213</ele>
        <time>2012-03-15T14:05:25Z</time>
      </trkpt>
      <trkpt lat="43.35818" lon="-0.56447">
        <ele>117.418213</ele>
        <time>2012-03-15T14:05:34Z</time>
      </trkpt>
    </trkseg>
  </trk>
</gpx>